<?xml version="1.0" encoding="UTF-8" standalone="no" ?>
<gpx xmlns="http://www.topografix.com/GPX/1/1" xmlns:xsi="http://www.w3.org/2001/XMLSchema-instance" xsi:schemaLocation="http://www.topografix.com/GPX/1/1 http://www.topografix.com/GPX/1/1/gpx.xsd" version="1.1" creator="VisuGPX - https://www.visugpx.com">
  <metadata>
    <name>2023-09-06 J2</name>
    <desc><![CDATA[Le Monastier - Le Bouchet 23.6km 06/09/23]]></desc>
  </metadata>
  <wpt lat="44.93827" lon="3.99553">
    <ele>940.2</ele>
    <name><![CDATA[0001380]]></name>
    <type><![CDATA[Point de départ]]></type>
  </wpt>
  <wpt lat="44.88594" lon="3.90525">
    <ele>946.6</ele>
    <name><![CDATA[0001381]]></name>
    <desc><![CDATA[<p><br /><h3>Nom: Segment: 1</h3><br />Heure de départ: 09/06/2023 08:23<br/>Heure d'arrivée: 09/06/2023 12:56<br/>Distance: 12,3km (04:32)<br/>Temps déplacement: 03:05<br/>Vitesse moyenne: 2,72 km/h<br/>Vitesse moyenne mouv.: 3,97 km/h<br/>Vitesse Max.: 7,04 km/h<br/>Altitude minimale: 770 m<br/>Altitude maximale: 1016 m<br/>Vitesse de montée: 221 m/h<br/>Vitesse de descente: -261,2 m/h<br/>Gain d'altitude: 523 m<br/>Perte d'altitude: -538 m<br/>Temps de montée: 02:21<br/>Temps de descente: 02:03<br/></p>]]></desc>
    <type><![CDATA[Point d'arrivée]]></type>
  </wpt>
  <wpt lat="44.88598" lon="3.90515">
    <ele>947.7</ele>
    <name><![CDATA[0001382]]></name>
    <type><![CDATA[Point de départ]]></type>
  </wpt>
  <wpt lat="44.89125" lon="3.79532">
    <ele>1213.4</ele>
    <name><![CDATA[0001383]]></name>
    <desc><![CDATA[<p><br /><h3>Nom: Segment: 2</h3><br />Heure de départ: 09/06/2023 13:38<br/>Heure d'arrivée: 09/06/2023 16:41<br/>Distance: 11,2km (03:03)<br/>Temps déplacement: 02:31<br/>Vitesse moyenne: 3,67 km/h<br/>Vitesse moyenne mouv.: 4,44 km/h<br/>Vitesse Max.: 22,78 km/h<br/>Altitude minimale: 943 m<br/>Altitude maximale: 1218 m<br/>Vitesse de montée: 265,4 m/h<br/>Vitesse de descente: -320,2 m/h<br/>Gain d'altitude: 492 m<br/>Perte d'altitude: -234 m<br/>Temps de montée: 01:51<br/>Temps de descente: 00:44<br/></p>]]></desc>
    <type><![CDATA[Point d'arrivée]]></type>
  </wpt>
  <trk>
    <name><![CDATA[2023-09-06 08:23]]></name>
    <desc><![CDATA[<p>Heure de départ: 09/06/2023 08:23<br/>Heure d'arrivée: 09/06/2023 16:41<br/>Distance: 23,6 km (07:35)<br/>Temps déplacement: 05:36<br/>Vitesse moyenne: 3,1 km/h<br/>Vitesse moyenne mouv.: 4,19 km/h<br/>Vitesse Max.: 22,78 km/h<br/>Altitude minimale: 770 m<br/>Altitude maximale: 1218 m<br/>Vitesse de montée: 201,3 m/h<br/>Vitesse de descente: -248,5 m/h<br/>Gain d'altitude: 936 m<br/>Perte d'altitude: -691 m<br/>Temps de montée: 04:39<br/>Temps de descente: 02:46<br/></p><hr align="center" width="480" style="height: 2px; width: 517px"/>]]></desc>
    <extensions>
      <line xmlns="http://www.topografix.com/GPX/gpx_style/0/2">
        <color>0000FF</color>
        <width>4</width>
      </line>
    </extensions>
    <trkseg>
      <trkpt lat="44.93827" lon="3.99553">
        <ele>969.44</ele>
        <time>2023-09-06T06:23:58Z</time>
      </trkpt>
      <trkpt lat="44.93804" lon="3.99553">
        <ele>958.44</ele>
        <time>2023-09-06T06:24:18Z</time>
      </trkpt>
      <trkpt lat="44.93785" lon="3.99554">
        <ele>955.44</ele>
        <time>2023-09-06T06:24:30Z</time>
      </trkpt>
      <trkpt lat="44.93765" lon="3.99555">
        <ele>960.44</ele>
        <time>2023-09-06T06:24:50Z</time>
      </trkpt>
      <trkpt lat="44.93743" lon="3.99566">
        <ele>962.44</ele>
        <time>2023-09-06T06:25:06Z</time>
      </trkpt>
      <trkpt lat="44.93724" lon="3.99571">
        <ele>962.44</ele>
        <time>2023-09-06T06:25:22Z</time>
      </trkpt>
      <trkpt lat="44.93701" lon="3.99573">
        <ele>958.44</ele>
        <time>2023-09-06T06:25:38Z</time>
      </trkpt>
      <trkpt lat="44.93678" lon="3.99579">
        <ele>957.44</ele>
        <time>2023-09-06T06:25:54Z</time>
      </trkpt>
      <trkpt lat="44.9366" lon="3.99594">
        <ele>955.44</ele>
        <time>2023-09-06T06:26:10Z</time>
      </trkpt>
      <trkpt lat="44.93641" lon="3.99606">
        <ele>954.44</ele>
        <time>2023-09-06T06:26:22Z</time>
      </trkpt>
      <trkpt lat="44.93621" lon="3.99604">
        <ele>953.44</ele>
        <time>2023-09-06T06:26:39Z</time>
      </trkpt>
      <trkpt lat="44.936" lon="3.99616">
        <ele>954.44</ele>
        <time>2023-09-06T06:26:59Z</time>
      </trkpt>
      <trkpt lat="44.93582" lon="3.99627">
        <ele>953.44</ele>
        <time>2023-09-06T06:27:11Z</time>
      </trkpt>
      <trkpt lat="44.93564" lon="3.99628">
        <ele>950.44</ele>
        <time>2023-09-06T06:27:23Z</time>
      </trkpt>
      <trkpt lat="44.93545" lon="3.99634">
        <ele>948.44</ele>
        <time>2023-09-06T06:27:43Z</time>
      </trkpt>
      <trkpt lat="44.93535" lon="3.99612">
        <ele>940.44</ele>
        <time>2023-09-06T06:28:07Z</time>
      </trkpt>
      <trkpt lat="44.93531" lon="3.99584">
        <ele>938.44</ele>
        <time>2023-09-06T06:28:23Z</time>
      </trkpt>
      <trkpt lat="44.93548" lon="3.99569">
        <ele>933.44</ele>
        <time>2023-09-06T06:29:15Z</time>
      </trkpt>
      <trkpt lat="44.9353" lon="3.99573">
        <ele>935.44</ele>
        <time>2023-09-06T06:30:03Z</time>
      </trkpt>
      <trkpt lat="44.93538" lon="3.99544">
        <ele>931.44</ele>
        <time>2023-09-06T06:30:19Z</time>
      </trkpt>
      <trkpt lat="44.93555" lon="3.99524">
        <ele>926.44</ele>
        <time>2023-09-06T06:30:35Z</time>
      </trkpt>
      <trkpt lat="44.93564" lon="3.995">
        <ele>922.44</ele>
        <time>2023-09-06T06:31:39Z</time>
      </trkpt>
      <trkpt lat="44.93576" lon="3.99476">
        <ele>919.44</ele>
        <time>2023-09-06T06:32:07Z</time>
      </trkpt>
      <trkpt lat="44.93584" lon="3.99451">
        <ele>918.44</ele>
        <time>2023-09-06T06:32:23Z</time>
      </trkpt>
      <trkpt lat="44.93589" lon="3.99427">
        <ele>916.44</ele>
        <time>2023-09-06T06:32:39Z</time>
      </trkpt>
      <trkpt lat="44.93596" lon="3.99397">
        <ele>914.44</ele>
        <time>2023-09-06T06:32:55Z</time>
      </trkpt>
      <trkpt lat="44.93607" lon="3.99375">
        <ele>910.44</ele>
        <time>2023-09-06T06:33:11Z</time>
      </trkpt>
      <trkpt lat="44.93614" lon="3.99349">
        <ele>907.44</ele>
        <time>2023-09-06T06:33:27Z</time>
      </trkpt>
      <trkpt lat="44.93615" lon="3.99324">
        <ele>904.44</ele>
        <time>2023-09-06T06:33:39Z</time>
      </trkpt>
      <trkpt lat="44.93624" lon="3.99296">
        <ele>900.44</ele>
        <time>2023-09-06T06:33:55Z</time>
      </trkpt>
      <trkpt lat="44.9363" lon="3.99271">
        <ele>896.44</ele>
        <time>2023-09-06T06:34:11Z</time>
      </trkpt>
      <trkpt lat="44.93635" lon="3.99241">
        <ele>894.44</ele>
        <time>2023-09-06T06:34:28Z</time>
      </trkpt>
      <trkpt lat="44.93638" lon="3.99212">
        <ele>892.44</ele>
        <time>2023-09-06T06:34:44Z</time>
      </trkpt>
      <trkpt lat="44.93638" lon="3.9918">
        <ele>889.44</ele>
        <time>2023-09-06T06:35:01Z</time>
      </trkpt>
      <trkpt lat="44.93641" lon="3.99155">
        <ele>888.44</ele>
        <time>2023-09-06T06:35:17Z</time>
      </trkpt>
      <trkpt lat="44.93642" lon="3.99124">
        <ele>890.44</ele>
        <time>2023-09-06T06:35:37Z</time>
      </trkpt>
      <trkpt lat="44.93649" lon="3.99094">
        <ele>888.44</ele>
        <time>2023-09-06T06:35:53Z</time>
      </trkpt>
      <trkpt lat="44.9365" lon="3.99065">
        <ele>885.44</ele>
        <time>2023-09-06T06:36:10Z</time>
      </trkpt>
      <trkpt lat="44.93653" lon="3.99036">
        <ele>881.44</ele>
        <time>2023-09-06T06:36:30Z</time>
      </trkpt>
      <trkpt lat="44.93658" lon="3.99009">
        <ele>878.44</ele>
        <time>2023-09-06T06:36:46Z</time>
      </trkpt>
      <trkpt lat="44.93661" lon="3.98978">
        <ele>876.44</ele>
        <time>2023-09-06T06:37:06Z</time>
      </trkpt>
      <trkpt lat="44.93665" lon="3.98952">
        <ele>871.44</ele>
        <time>2023-09-06T06:37:22Z</time>
      </trkpt>
      <trkpt lat="44.93675" lon="3.98929">
        <ele>868.44</ele>
        <time>2023-09-06T06:37:38Z</time>
      </trkpt>
      <trkpt lat="44.93688" lon="3.98908">
        <ele>864.44</ele>
        <time>2023-09-06T06:37:54Z</time>
      </trkpt>
      <trkpt lat="44.93688" lon="3.98879">
        <ele>865.44</ele>
        <time>2023-09-06T06:38:10Z</time>
      </trkpt>
      <trkpt lat="44.9369" lon="3.9885">
        <ele>862.44</ele>
        <time>2023-09-06T06:38:26Z</time>
      </trkpt>
      <trkpt lat="44.93691" lon="3.98823">
        <ele>859.44</ele>
        <time>2023-09-06T06:38:42Z</time>
      </trkpt>
      <trkpt lat="44.93696" lon="3.98793">
        <ele>856.44</ele>
        <time>2023-09-06T06:38:58Z</time>
      </trkpt>
      <trkpt lat="44.93709" lon="3.98771">
        <ele>852.44</ele>
        <time>2023-09-06T06:39:18Z</time>
      </trkpt>
      <trkpt lat="44.93719" lon="3.98744">
        <ele>848.44</ele>
        <time>2023-09-06T06:39:42Z</time>
      </trkpt>
      <trkpt lat="44.93724" lon="3.98715">
        <ele>846.44</ele>
        <time>2023-09-06T06:39:58Z</time>
      </trkpt>
      <trkpt lat="44.9372" lon="3.98689">
        <ele>845.44</ele>
        <time>2023-09-06T06:40:14Z</time>
      </trkpt>
      <trkpt lat="44.93713" lon="3.98661">
        <ele>843.44</ele>
        <time>2023-09-06T06:40:35Z</time>
      </trkpt>
      <trkpt lat="44.93705" lon="3.98631">
        <ele>837.44</ele>
        <time>2023-09-06T06:40:55Z</time>
      </trkpt>
      <trkpt lat="44.93697" lon="3.98603">
        <ele>835.44</ele>
        <time>2023-09-06T06:41:11Z</time>
      </trkpt>
      <trkpt lat="44.93694" lon="3.98576">
        <ele>834.44</ele>
        <time>2023-09-06T06:41:27Z</time>
      </trkpt>
      <trkpt lat="44.93687" lon="3.98548">
        <ele>833.44</ele>
        <time>2023-09-06T06:41:43Z</time>
      </trkpt>
      <trkpt lat="44.93681" lon="3.98518">
        <ele>832.44</ele>
        <time>2023-09-06T06:41:59Z</time>
      </trkpt>
      <trkpt lat="44.93675" lon="3.98494">
        <ele>831.44</ele>
        <time>2023-09-06T06:42:15Z</time>
      </trkpt>
      <trkpt lat="44.93668" lon="3.98466">
        <ele>830.44</ele>
        <time>2023-09-06T06:42:31Z</time>
      </trkpt>
      <trkpt lat="44.93657" lon="3.98443">
        <ele>827.44</ele>
        <time>2023-09-06T06:42:47Z</time>
      </trkpt>
      <trkpt lat="44.93642" lon="3.98426">
        <ele>827.44</ele>
        <time>2023-09-06T06:43:07Z</time>
      </trkpt>
      <trkpt lat="44.93623" lon="3.98412">
        <ele>827.44</ele>
        <time>2023-09-06T06:43:19Z</time>
      </trkpt>
      <trkpt lat="44.93606" lon="3.984">
        <ele>826.44</ele>
        <time>2023-09-06T06:43:35Z</time>
      </trkpt>
      <trkpt lat="44.93586" lon="3.98396">
        <ele>828.44</ele>
        <time>2023-09-06T06:43:55Z</time>
      </trkpt>
      <trkpt lat="44.93573" lon="3.98374">
        <ele>824.44</ele>
        <time>2023-09-06T06:46:27Z</time>
      </trkpt>
      <trkpt lat="44.93552" lon="3.9837">
        <ele>833.44</ele>
        <time>2023-09-06T06:47:11Z</time>
      </trkpt>
      <trkpt lat="44.9353" lon="3.98366">
        <ele>826.44</ele>
        <time>2023-09-06T06:47:35Z</time>
      </trkpt>
      <trkpt lat="44.93512" lon="3.98365">
        <ele>826.44</ele>
        <time>2023-09-06T06:48:19Z</time>
      </trkpt>
      <trkpt lat="44.93499" lon="3.98346">
        <ele>826.44</ele>
        <time>2023-09-06T06:49:11Z</time>
      </trkpt>
      <trkpt lat="44.93484" lon="3.98328">
        <ele>831.44</ele>
        <time>2023-09-06T06:49:35Z</time>
      </trkpt>
      <trkpt lat="44.93463" lon="3.98326">
        <ele>833.44</ele>
        <time>2023-09-06T06:50:04Z</time>
      </trkpt>
      <trkpt lat="44.93444" lon="3.98323">
        <ele>841.44</ele>
        <time>2023-09-06T06:50:36Z</time>
      </trkpt>
      <trkpt lat="44.93424" lon="3.98312">
        <ele>847.44</ele>
        <time>2023-09-06T06:51:16Z</time>
      </trkpt>
      <trkpt lat="44.93412" lon="3.9829">
        <ele>846.44</ele>
        <time>2023-09-06T06:51:37Z</time>
      </trkpt>
      <trkpt lat="44.93419" lon="3.98266">
        <ele>841.44</ele>
        <time>2023-09-06T06:52:01Z</time>
      </trkpt>
      <trkpt lat="44.93424" lon="3.98237">
        <ele>843.44</ele>
        <time>2023-09-06T06:52:25Z</time>
      </trkpt>
      <trkpt lat="44.93422" lon="3.98211">
        <ele>849.44</ele>
        <time>2023-09-06T06:52:53Z</time>
      </trkpt>
      <trkpt lat="44.93423" lon="3.98183">
        <ele>853.44</ele>
        <time>2023-09-06T06:53:21Z</time>
      </trkpt>
      <trkpt lat="44.93418" lon="3.98155">
        <ele>856.44</ele>
        <time>2023-09-06T06:53:45Z</time>
      </trkpt>
      <trkpt lat="44.93415" lon="3.98126">
        <ele>859.44</ele>
        <time>2023-09-06T06:54:14Z</time>
      </trkpt>
      <trkpt lat="44.93408" lon="3.98101">
        <ele>862.44</ele>
        <time>2023-09-06T06:54:38Z</time>
      </trkpt>
      <trkpt lat="44.93399" lon="3.98079">
        <ele>866.44</ele>
        <time>2023-09-06T06:55:02Z</time>
      </trkpt>
      <trkpt lat="44.93386" lon="3.98058">
        <ele>875.44</ele>
        <time>2023-09-06T06:55:50Z</time>
      </trkpt>
      <trkpt lat="44.93368" lon="3.98047">
        <ele>879.44</ele>
        <time>2023-09-06T06:56:26Z</time>
      </trkpt>
      <trkpt lat="44.9335" lon="3.98035">
        <ele>881.44</ele>
        <time>2023-09-06T06:57:06Z</time>
      </trkpt>
      <trkpt lat="44.93344" lon="3.98007">
        <ele>877.44</ele>
        <time>2023-09-06T06:57:38Z</time>
      </trkpt>
      <trkpt lat="44.93339" lon="3.97979">
        <ele>876.44</ele>
        <time>2023-09-06T06:58:02Z</time>
      </trkpt>
      <trkpt lat="44.93341" lon="3.9795">
        <ele>873.44</ele>
        <time>2023-09-06T06:58:30Z</time>
      </trkpt>
      <trkpt lat="44.93348" lon="3.97923">
        <ele>870.44</ele>
        <time>2023-09-06T06:58:50Z</time>
      </trkpt>
      <trkpt lat="44.93347" lon="3.97895">
        <ele>874.44</ele>
        <time>2023-09-06T06:59:14Z</time>
      </trkpt>
      <trkpt lat="44.93351" lon="3.97868">
        <ele>875.44</ele>
        <time>2023-09-06T06:59:42Z</time>
      </trkpt>
      <trkpt lat="44.93358" lon="3.97843">
        <ele>874.44</ele>
        <time>2023-09-06T07:00:06Z</time>
      </trkpt>
      <trkpt lat="44.93373" lon="3.97823">
        <ele>873.44</ele>
        <time>2023-09-06T07:00:30Z</time>
      </trkpt>
      <trkpt lat="44.93374" lon="3.97794">
        <ele>870.44</ele>
        <time>2023-09-06T07:00:54Z</time>
      </trkpt>
      <trkpt lat="44.93366" lon="3.97769">
        <ele>871.44</ele>
        <time>2023-09-06T07:01:14Z</time>
      </trkpt>
      <trkpt lat="44.93357" lon="3.97743">
        <ele>871.44</ele>
        <time>2023-09-06T07:01:34Z</time>
      </trkpt>
      <trkpt lat="44.93354" lon="3.97714">
        <ele>873.44</ele>
        <time>2023-09-06T07:01:54Z</time>
      </trkpt>
      <trkpt lat="44.93345" lon="3.9769">
        <ele>875.44</ele>
        <time>2023-09-06T07:02:14Z</time>
      </trkpt>
      <trkpt lat="44.93334" lon="3.97666">
        <ele>884.44</ele>
        <time>2023-09-06T07:02:42Z</time>
      </trkpt>
      <trkpt lat="44.93323" lon="3.97642">
        <ele>890.44</ele>
        <time>2023-09-06T07:03:14Z</time>
      </trkpt>
      <trkpt lat="44.93324" lon="3.97612">
        <ele>883.44</ele>
        <time>2023-09-06T07:03:46Z</time>
      </trkpt>
      <trkpt lat="44.93329" lon="3.97584">
        <ele>887.44</ele>
        <time>2023-09-06T07:04:14Z</time>
      </trkpt>
      <trkpt lat="44.93342" lon="3.97564">
        <ele>890.44</ele>
        <time>2023-09-06T07:04:38Z</time>
      </trkpt>
      <trkpt lat="44.93353" lon="3.9754">
        <ele>889.44</ele>
        <time>2023-09-06T07:05:06Z</time>
      </trkpt>
      <trkpt lat="44.93364" lon="3.97516">
        <ele>891.44</ele>
        <time>2023-09-06T07:05:26Z</time>
      </trkpt>
      <trkpt lat="44.9337" lon="3.97487">
        <ele>891.44</ele>
        <time>2023-09-06T07:05:50Z</time>
      </trkpt>
      <trkpt lat="44.93375" lon="3.97458">
        <ele>893.44</ele>
        <time>2023-09-06T07:06:18Z</time>
      </trkpt>
      <trkpt lat="44.93376" lon="3.97431">
        <ele>894.44</ele>
        <time>2023-09-06T07:06:42Z</time>
      </trkpt>
      <trkpt lat="44.93376" lon="3.97403">
        <ele>897.44</ele>
        <time>2023-09-06T07:07:10Z</time>
      </trkpt>
      <trkpt lat="44.93371" lon="3.97377">
        <ele>898.44</ele>
        <time>2023-09-06T07:07:30Z</time>
      </trkpt>
      <trkpt lat="44.93366" lon="3.97352">
        <ele>898.44</ele>
        <time>2023-09-06T07:07:54Z</time>
      </trkpt>
      <trkpt lat="44.93358" lon="3.97327">
        <ele>907.44</ele>
        <time>2023-09-06T07:08:22Z</time>
      </trkpt>
      <trkpt lat="44.93359" lon="3.97299">
        <ele>910.44</ele>
        <time>2023-09-06T07:09:02Z</time>
      </trkpt>
      <trkpt lat="44.93356" lon="3.97272">
        <ele>914.44</ele>
        <time>2023-09-06T07:09:34Z</time>
      </trkpt>
      <trkpt lat="44.93356" lon="3.97246">
        <ele>914.44</ele>
        <time>2023-09-06T07:10:06Z</time>
      </trkpt>
      <trkpt lat="44.93358" lon="3.97218">
        <ele>914.44</ele>
        <time>2023-09-06T07:10:50Z</time>
      </trkpt>
      <trkpt lat="44.9336" lon="3.97191">
        <ele>919.44</ele>
        <time>2023-09-06T07:11:22Z</time>
      </trkpt>
      <trkpt lat="44.93361" lon="3.97162">
        <ele>923.44</ele>
        <time>2023-09-06T07:12:02Z</time>
      </trkpt>
      <trkpt lat="44.93361" lon="3.97135">
        <ele>926.44</ele>
        <time>2023-09-06T07:12:38Z</time>
      </trkpt>
      <trkpt lat="44.93352" lon="3.97111">
        <ele>929.44</ele>
        <time>2023-09-06T07:13:10Z</time>
      </trkpt>
      <trkpt lat="44.93334" lon="3.97109">
        <ele>932.44</ele>
        <time>2023-09-06T07:13:42Z</time>
      </trkpt>
      <trkpt lat="44.93313" lon="3.971">
        <ele>934.44</ele>
        <time>2023-09-06T07:14:10Z</time>
      </trkpt>
      <trkpt lat="44.93293" lon="3.97097">
        <ele>937.44</ele>
        <time>2023-09-06T07:14:42Z</time>
      </trkpt>
      <trkpt lat="44.93277" lon="3.97081">
        <ele>941.44</ele>
        <time>2023-09-06T07:15:14Z</time>
      </trkpt>
      <trkpt lat="44.93262" lon="3.97064">
        <ele>939.44</ele>
        <time>2023-09-06T07:18:14Z</time>
      </trkpt>
      <trkpt lat="44.93255" lon="3.97038">
        <ele>935.44</ele>
        <time>2023-09-06T07:18:50Z</time>
      </trkpt>
      <trkpt lat="44.93251" lon="3.97012">
        <ele>937.44</ele>
        <time>2023-09-06T07:19:19Z</time>
      </trkpt>
      <trkpt lat="44.93254" lon="3.96982">
        <ele>939.44</ele>
        <time>2023-09-06T07:19:43Z</time>
      </trkpt>
      <trkpt lat="44.93256" lon="3.96952">
        <ele>938.44</ele>
        <time>2023-09-06T07:20:03Z</time>
      </trkpt>
      <trkpt lat="44.93256" lon="3.96926">
        <ele>938.44</ele>
        <time>2023-09-06T07:20:19Z</time>
      </trkpt>
      <trkpt lat="44.93259" lon="3.96899">
        <ele>937.44</ele>
        <time>2023-09-06T07:20:35Z</time>
      </trkpt>
      <trkpt lat="44.93262" lon="3.96872">
        <ele>937.44</ele>
        <time>2023-09-06T07:21:07Z</time>
      </trkpt>
      <trkpt lat="44.93258" lon="3.96847">
        <ele>940.44</ele>
        <time>2023-09-06T07:21:23Z</time>
      </trkpt>
      <trkpt lat="44.93248" lon="3.9682">
        <ele>943.44</ele>
        <time>2023-09-06T07:21:55Z</time>
      </trkpt>
      <trkpt lat="44.93234" lon="3.968">
        <ele>945.44</ele>
        <time>2023-09-06T07:22:15Z</time>
      </trkpt>
      <trkpt lat="44.93225" lon="3.96775">
        <ele>947.44</ele>
        <time>2023-09-06T07:22:39Z</time>
      </trkpt>
      <trkpt lat="44.93215" lon="3.96752">
        <ele>949.44</ele>
        <time>2023-09-06T07:22:59Z</time>
      </trkpt>
      <trkpt lat="44.93202" lon="3.96725">
        <ele>951.44</ele>
        <time>2023-09-06T07:23:23Z</time>
      </trkpt>
      <trkpt lat="44.93186" lon="3.96703">
        <ele>951.44</ele>
        <time>2023-09-06T07:23:43Z</time>
      </trkpt>
      <trkpt lat="44.93172" lon="3.96684">
        <ele>952.44</ele>
        <time>2023-09-06T07:24:03Z</time>
      </trkpt>
      <trkpt lat="44.9316" lon="3.96662">
        <ele>953.44</ele>
        <time>2023-09-06T07:24:23Z</time>
      </trkpt>
      <trkpt lat="44.93145" lon="3.96647">
        <ele>955.44</ele>
        <time>2023-09-06T07:24:39Z</time>
      </trkpt>
      <trkpt lat="44.93128" lon="3.96637">
        <ele>957.44</ele>
        <time>2023-09-06T07:24:59Z</time>
      </trkpt>
      <trkpt lat="44.93109" lon="3.96626">
        <ele>959.44</ele>
        <time>2023-09-06T07:25:19Z</time>
      </trkpt>
      <trkpt lat="44.93092" lon="3.96613">
        <ele>959.44</ele>
        <time>2023-09-06T07:25:35Z</time>
      </trkpt>
      <trkpt lat="44.93074" lon="3.96596">
        <ele>959.44</ele>
        <time>2023-09-06T07:25:55Z</time>
      </trkpt>
      <trkpt lat="44.93053" lon="3.96584">
        <ele>960.44</ele>
        <time>2023-09-06T07:26:15Z</time>
      </trkpt>
      <trkpt lat="44.93035" lon="3.96579">
        <ele>961.44</ele>
        <time>2023-09-06T07:26:31Z</time>
      </trkpt>
      <trkpt lat="44.93014" lon="3.96577">
        <ele>961.44</ele>
        <time>2023-09-06T07:26:51Z</time>
      </trkpt>
      <trkpt lat="44.92997" lon="3.96569">
        <ele>960.44</ele>
        <time>2023-09-06T07:27:08Z</time>
      </trkpt>
      <trkpt lat="44.92979" lon="3.96556">
        <ele>959.44</ele>
        <time>2023-09-06T07:27:24Z</time>
      </trkpt>
      <trkpt lat="44.92961" lon="3.96543">
        <ele>958.44</ele>
        <time>2023-09-06T07:27:40Z</time>
      </trkpt>
      <trkpt lat="44.92941" lon="3.9653">
        <ele>955.44</ele>
        <time>2023-09-06T07:28:00Z</time>
      </trkpt>
      <trkpt lat="44.92918" lon="3.96533">
        <ele>953.44</ele>
        <time>2023-09-06T07:28:20Z</time>
      </trkpt>
      <trkpt lat="44.92899" lon="3.96538">
        <ele>952.44</ele>
        <time>2023-09-06T07:28:37Z</time>
      </trkpt>
      <trkpt lat="44.9288" lon="3.9653">
        <ele>949.44</ele>
        <time>2023-09-06T07:28:54Z</time>
      </trkpt>
      <trkpt lat="44.92865" lon="3.96516">
        <ele>948.44</ele>
        <time>2023-09-06T07:29:11Z</time>
      </trkpt>
      <trkpt lat="44.92853" lon="3.96492">
        <ele>945.44</ele>
        <time>2023-09-06T07:29:28Z</time>
      </trkpt>
      <trkpt lat="44.92843" lon="3.9647">
        <ele>945.44</ele>
        <time>2023-09-06T07:29:44Z</time>
      </trkpt>
      <trkpt lat="44.92834" lon="3.96448">
        <ele>940.44</ele>
        <time>2023-09-06T07:30:04Z</time>
      </trkpt>
      <trkpt lat="44.92823" lon="3.96421">
        <ele>938.44</ele>
        <time>2023-09-06T07:30:20Z</time>
      </trkpt>
      <trkpt lat="44.92811" lon="3.96397">
        <ele>938.44</ele>
        <time>2023-09-06T07:30:36Z</time>
      </trkpt>
      <trkpt lat="44.92798" lon="3.96378">
        <ele>936.44</ele>
        <time>2023-09-06T07:30:52Z</time>
      </trkpt>
      <trkpt lat="44.92779" lon="3.96363">
        <ele>935.44</ele>
        <time>2023-09-06T07:31:08Z</time>
      </trkpt>
      <trkpt lat="44.92763" lon="3.96346">
        <ele>934.44</ele>
        <time>2023-09-06T07:31:24Z</time>
      </trkpt>
      <trkpt lat="44.9275" lon="3.96327">
        <ele>933.44</ele>
        <time>2023-09-06T07:31:44Z</time>
      </trkpt>
      <trkpt lat="44.92737" lon="3.96305">
        <ele>934.44</ele>
        <time>2023-09-06T07:32:04Z</time>
      </trkpt>
      <trkpt lat="44.9272" lon="3.96294">
        <ele>938.44</ele>
        <time>2023-09-06T07:32:24Z</time>
      </trkpt>
      <trkpt lat="44.92701" lon="3.96286">
        <ele>937.44</ele>
        <time>2023-09-06T07:32:44Z</time>
      </trkpt>
      <trkpt lat="44.92684" lon="3.96271">
        <ele>940.44</ele>
        <time>2023-09-06T07:33:08Z</time>
      </trkpt>
      <trkpt lat="44.92673" lon="3.96246">
        <ele>941.44</ele>
        <time>2023-09-06T07:33:48Z</time>
      </trkpt>
      <trkpt lat="44.92663" lon="3.96225">
        <ele>944.44</ele>
        <time>2023-09-06T07:34:08Z</time>
      </trkpt>
      <trkpt lat="44.92646" lon="3.96215">
        <ele>947.44</ele>
        <time>2023-09-06T07:34:32Z</time>
      </trkpt>
      <trkpt lat="44.92627" lon="3.96206">
        <ele>953.44</ele>
        <time>2023-09-06T07:35:00Z</time>
      </trkpt>
      <trkpt lat="44.92611" lon="3.96189">
        <ele>954.44</ele>
        <time>2023-09-06T07:35:28Z</time>
      </trkpt>
      <trkpt lat="44.92613" lon="3.9616">
        <ele>955.44</ele>
        <time>2023-09-06T07:35:52Z</time>
      </trkpt>
      <trkpt lat="44.9261" lon="3.96129">
        <ele>956.44</ele>
        <time>2023-09-06T07:36:16Z</time>
      </trkpt>
      <trkpt lat="44.92601" lon="3.96103">
        <ele>958.44</ele>
        <time>2023-09-06T07:37:04Z</time>
      </trkpt>
      <trkpt lat="44.92593" lon="3.9608">
        <ele>961.44</ele>
        <time>2023-09-06T07:37:28Z</time>
      </trkpt>
      <trkpt lat="44.9258" lon="3.96056">
        <ele>961.44</ele>
        <time>2023-09-06T07:38:08Z</time>
      </trkpt>
      <trkpt lat="44.92566" lon="3.96033">
        <ele>961.44</ele>
        <time>2023-09-06T07:38:28Z</time>
      </trkpt>
      <trkpt lat="44.92553" lon="3.96011">
        <ele>962.44</ele>
        <time>2023-09-06T07:38:44Z</time>
      </trkpt>
      <trkpt lat="44.92541" lon="3.95989">
        <ele>960.44</ele>
        <time>2023-09-06T07:39:00Z</time>
      </trkpt>
      <trkpt lat="44.92536" lon="3.95962">
        <ele>959.44</ele>
        <time>2023-09-06T07:39:20Z</time>
      </trkpt>
      <trkpt lat="44.92524" lon="3.95943">
        <ele>955.44</ele>
        <time>2023-09-06T07:39:40Z</time>
      </trkpt>
      <trkpt lat="44.92523" lon="3.95913">
        <ele>950.44</ele>
        <time>2023-09-06T07:40:00Z</time>
      </trkpt>
      <trkpt lat="44.92528" lon="3.95887">
        <ele>951.44</ele>
        <time>2023-09-06T07:40:20Z</time>
      </trkpt>
      <trkpt lat="44.92529" lon="3.95861">
        <ele>952.44</ele>
        <time>2023-09-06T07:40:40Z</time>
      </trkpt>
      <trkpt lat="44.92519" lon="3.95835">
        <ele>956.44</ele>
        <time>2023-09-06T07:41:04Z</time>
      </trkpt>
      <trkpt lat="44.92508" lon="3.95815">
        <ele>957.44</ele>
        <time>2023-09-06T07:41:24Z</time>
      </trkpt>
      <trkpt lat="44.92501" lon="3.95791">
        <ele>960.44</ele>
        <time>2023-09-06T07:41:44Z</time>
      </trkpt>
      <trkpt lat="44.92492" lon="3.95765">
        <ele>962.44</ele>
        <time>2023-09-06T07:42:04Z</time>
      </trkpt>
      <trkpt lat="44.9248" lon="3.95741">
        <ele>964.44</ele>
        <time>2023-09-06T07:42:24Z</time>
      </trkpt>
      <trkpt lat="44.9247" lon="3.95718">
        <ele>966.44</ele>
        <time>2023-09-06T07:42:44Z</time>
      </trkpt>
      <trkpt lat="44.92462" lon="3.95695">
        <ele>969.44</ele>
        <time>2023-09-06T07:43:04Z</time>
      </trkpt>
      <trkpt lat="44.92455" lon="3.95669">
        <ele>970.44</ele>
        <time>2023-09-06T07:43:24Z</time>
      </trkpt>
      <trkpt lat="44.92442" lon="3.95649">
        <ele>969.44</ele>
        <time>2023-09-06T07:43:52Z</time>
      </trkpt>
      <trkpt lat="44.92425" lon="3.95638">
        <ele>971.44</ele>
        <time>2023-09-06T07:44:08Z</time>
      </trkpt>
      <trkpt lat="44.92407" lon="3.95626">
        <ele>973.44</ele>
        <time>2023-09-06T07:44:28Z</time>
      </trkpt>
      <trkpt lat="44.92391" lon="3.95607">
        <ele>973.44</ele>
        <time>2023-09-06T07:45:00Z</time>
      </trkpt>
      <trkpt lat="44.92392" lon="3.95579">
        <ele>972.44</ele>
        <time>2023-09-06T07:45:20Z</time>
      </trkpt>
      <trkpt lat="44.92394" lon="3.95548">
        <ele>973.44</ele>
        <time>2023-09-06T07:45:44Z</time>
      </trkpt>
      <trkpt lat="44.92389" lon="3.95517">
        <ele>972.44</ele>
        <time>2023-09-06T07:46:04Z</time>
      </trkpt>
      <trkpt lat="44.9239" lon="3.9549">
        <ele>972.44</ele>
        <time>2023-09-06T07:46:24Z</time>
      </trkpt>
      <trkpt lat="44.92397" lon="3.95463">
        <ele>970.44</ele>
        <time>2023-09-06T07:46:48Z</time>
      </trkpt>
      <trkpt lat="44.92401" lon="3.95434">
        <ele>971.44</ele>
        <time>2023-09-06T07:47:08Z</time>
      </trkpt>
      <trkpt lat="44.92409" lon="3.95407">
        <ele>971.44</ele>
        <time>2023-09-06T07:47:28Z</time>
      </trkpt>
      <trkpt lat="44.92427" lon="3.95391">
        <ele>967.44</ele>
        <time>2023-09-06T07:47:48Z</time>
      </trkpt>
      <trkpt lat="44.92425" lon="3.9536">
        <ele>965.44</ele>
        <time>2023-09-06T07:48:09Z</time>
      </trkpt>
      <trkpt lat="44.9242" lon="3.95335">
        <ele>965.44</ele>
        <time>2023-09-06T07:48:26Z</time>
      </trkpt>
      <trkpt lat="44.92417" lon="3.9531">
        <ele>962.44</ele>
        <time>2023-09-06T07:48:42Z</time>
      </trkpt>
      <trkpt lat="44.92413" lon="3.95279">
        <ele>961.44</ele>
        <time>2023-09-06T07:49:02Z</time>
      </trkpt>
      <trkpt lat="44.92411" lon="3.9525">
        <ele>962.44</ele>
        <time>2023-09-06T07:49:58Z</time>
      </trkpt>
      <trkpt lat="44.92406" lon="3.95219">
        <ele>961.44</ele>
        <time>2023-09-06T07:50:18Z</time>
      </trkpt>
      <trkpt lat="44.92402" lon="3.95194">
        <ele>961.44</ele>
        <time>2023-09-06T07:50:34Z</time>
      </trkpt>
      <trkpt lat="44.92398" lon="3.95167">
        <ele>958.44</ele>
        <time>2023-09-06T07:50:50Z</time>
      </trkpt>
      <trkpt lat="44.92392" lon="3.95137">
        <ele>957.44</ele>
        <time>2023-09-06T07:51:10Z</time>
      </trkpt>
      <trkpt lat="44.92387" lon="3.9511">
        <ele>956.44</ele>
        <time>2023-09-06T07:51:26Z</time>
      </trkpt>
      <trkpt lat="44.92383" lon="3.9508">
        <ele>956.44</ele>
        <time>2023-09-06T07:51:46Z</time>
      </trkpt>
      <trkpt lat="44.92378" lon="3.95049">
        <ele>959.44</ele>
        <time>2023-09-06T07:52:06Z</time>
      </trkpt>
      <trkpt lat="44.92374" lon="3.95024">
        <ele>959.44</ele>
        <time>2023-09-06T07:52:22Z</time>
      </trkpt>
      <trkpt lat="44.92369" lon="3.94994">
        <ele>957.44</ele>
        <time>2023-09-06T07:52:42Z</time>
      </trkpt>
      <trkpt lat="44.92362" lon="3.94964">
        <ele>958.44</ele>
        <time>2023-09-06T07:53:02Z</time>
      </trkpt>
      <trkpt lat="44.92354" lon="3.94938">
        <ele>960.44</ele>
        <time>2023-09-06T07:53:22Z</time>
      </trkpt>
      <trkpt lat="44.92344" lon="3.94913">
        <ele>959.44</ele>
        <time>2023-09-06T07:53:42Z</time>
      </trkpt>
      <trkpt lat="44.92332" lon="3.94887">
        <ele>958.44</ele>
        <time>2023-09-06T07:54:02Z</time>
      </trkpt>
      <trkpt lat="44.9232" lon="3.94868">
        <ele>958.44</ele>
        <time>2023-09-06T07:54:18Z</time>
      </trkpt>
      <trkpt lat="44.92309" lon="3.94846">
        <ele>959.44</ele>
        <time>2023-09-06T07:54:34Z</time>
      </trkpt>
      <trkpt lat="44.92295" lon="3.94821">
        <ele>959.44</ele>
        <time>2023-09-06T07:54:54Z</time>
      </trkpt>
      <trkpt lat="44.92282" lon="3.94803">
        <ele>959.44</ele>
        <time>2023-09-06T07:55:10Z</time>
      </trkpt>
      <trkpt lat="44.92267" lon="3.94786">
        <ele>960.44</ele>
        <time>2023-09-06T07:55:26Z</time>
      </trkpt>
      <trkpt lat="44.9225" lon="3.9477">
        <ele>960.44</ele>
        <time>2023-09-06T07:55:42Z</time>
      </trkpt>
      <trkpt lat="44.92234" lon="3.94755">
        <ele>959.44</ele>
        <time>2023-09-06T07:55:58Z</time>
      </trkpt>
      <trkpt lat="44.92217" lon="3.94742">
        <ele>959.44</ele>
        <time>2023-09-06T07:56:14Z</time>
      </trkpt>
      <trkpt lat="44.922" lon="3.9473">
        <ele>958.44</ele>
        <time>2023-09-06T07:56:30Z</time>
      </trkpt>
      <trkpt lat="44.9218" lon="3.94718">
        <ele>957.44</ele>
        <time>2023-09-06T07:56:50Z</time>
      </trkpt>
      <trkpt lat="44.92161" lon="3.94703">
        <ele>956.44</ele>
        <time>2023-09-06T07:57:10Z</time>
      </trkpt>
      <trkpt lat="44.92142" lon="3.94697">
        <ele>952.44</ele>
        <time>2023-09-06T07:57:30Z</time>
      </trkpt>
      <trkpt lat="44.92125" lon="3.94686">
        <ele>949.44</ele>
        <time>2023-09-06T07:57:46Z</time>
      </trkpt>
      <trkpt lat="44.92108" lon="3.94668">
        <ele>946.44</ele>
        <time>2023-09-06T07:57:58Z</time>
      </trkpt>
      <trkpt lat="44.92088" lon="3.94664">
        <ele>941.44</ele>
        <time>2023-09-06T07:58:14Z</time>
      </trkpt>
      <trkpt lat="44.92069" lon="3.94681">
        <ele>938.44</ele>
        <time>2023-09-06T07:58:30Z</time>
      </trkpt>
      <trkpt lat="44.92049" lon="3.94697">
        <ele>935.44</ele>
        <time>2023-09-06T07:58:46Z</time>
      </trkpt>
      <trkpt lat="44.92033" lon="3.94708">
        <ele>932.44</ele>
        <time>2023-09-06T07:58:58Z</time>
      </trkpt>
      <trkpt lat="44.92016" lon="3.94697">
        <ele>928.44</ele>
        <time>2023-09-06T07:59:14Z</time>
      </trkpt>
      <trkpt lat="44.92011" lon="3.9467">
        <ele>926.44</ele>
        <time>2023-09-06T07:59:30Z</time>
      </trkpt>
      <trkpt lat="44.92001" lon="3.94649">
        <ele>924.44</ele>
        <time>2023-09-06T08:00:54Z</time>
      </trkpt>
      <trkpt lat="44.92007" lon="3.94623">
        <ele>922.44</ele>
        <time>2023-09-06T08:01:42Z</time>
      </trkpt>
      <trkpt lat="44.92011" lon="3.94594">
        <ele>924.44</ele>
        <time>2023-09-06T08:02:06Z</time>
      </trkpt>
      <trkpt lat="44.92012" lon="3.94565">
        <ele>923.44</ele>
        <time>2023-09-06T08:02:30Z</time>
      </trkpt>
      <trkpt lat="44.92011" lon="3.94536">
        <ele>928.44</ele>
        <time>2023-09-06T08:02:54Z</time>
      </trkpt>
      <trkpt lat="44.9201" lon="3.9451">
        <ele>932.44</ele>
        <time>2023-09-06T08:03:14Z</time>
      </trkpt>
      <trkpt lat="44.92006" lon="3.94485">
        <ele>933.44</ele>
        <time>2023-09-06T08:03:34Z</time>
      </trkpt>
      <trkpt lat="44.91997" lon="3.9446">
        <ele>935.44</ele>
        <time>2023-09-06T08:03:54Z</time>
      </trkpt>
      <trkpt lat="44.91988" lon="3.94432">
        <ele>937.44</ele>
        <time>2023-09-06T08:04:14Z</time>
      </trkpt>
      <trkpt lat="44.9198" lon="3.94404">
        <ele>939.44</ele>
        <time>2023-09-06T08:04:34Z</time>
      </trkpt>
      <trkpt lat="44.91973" lon="3.94381">
        <ele>938.44</ele>
        <time>2023-09-06T08:04:50Z</time>
      </trkpt>
      <trkpt lat="44.91964" lon="3.94356">
        <ele>939.44</ele>
        <time>2023-09-06T08:05:07Z</time>
      </trkpt>
      <trkpt lat="44.91952" lon="3.94331">
        <ele>939.44</ele>
        <time>2023-09-06T08:05:27Z</time>
      </trkpt>
      <trkpt lat="44.91938" lon="3.94311">
        <ele>940.44</ele>
        <time>2023-09-06T08:05:43Z</time>
      </trkpt>
      <trkpt lat="44.91926" lon="3.94293">
        <ele>941.44</ele>
        <time>2023-09-06T08:05:59Z</time>
      </trkpt>
      <trkpt lat="44.91909" lon="3.94276">
        <ele>942.44</ele>
        <time>2023-09-06T08:06:19Z</time>
      </trkpt>
      <trkpt lat="44.91892" lon="3.94254">
        <ele>944.44</ele>
        <time>2023-09-06T08:06:39Z</time>
      </trkpt>
      <trkpt lat="44.91872" lon="3.94243">
        <ele>944.44</ele>
        <time>2023-09-06T08:07:04Z</time>
      </trkpt>
      <trkpt lat="44.91861" lon="3.94217">
        <ele>943.44</ele>
        <time>2023-09-06T08:07:24Z</time>
      </trkpt>
      <trkpt lat="44.91857" lon="3.9419">
        <ele>939.44</ele>
        <time>2023-09-06T08:07:40Z</time>
      </trkpt>
      <trkpt lat="44.9185" lon="3.9416">
        <ele>938.44</ele>
        <time>2023-09-06T08:08:00Z</time>
      </trkpt>
      <trkpt lat="44.91849" lon="3.94133">
        <ele>934.44</ele>
        <time>2023-09-06T08:08:24Z</time>
      </trkpt>
      <trkpt lat="44.91855" lon="3.94159">
        <ele>935.44</ele>
        <time>2023-09-06T08:10:04Z</time>
      </trkpt>
      <trkpt lat="44.91849" lon="3.94134">
        <ele>935.44</ele>
        <time>2023-09-06T08:10:36Z</time>
      </trkpt>
      <trkpt lat="44.91842" lon="3.94109">
        <ele>936.44</ele>
        <time>2023-09-06T08:11:00Z</time>
      </trkpt>
      <trkpt lat="44.91825" lon="3.9409">
        <ele>941.44</ele>
        <time>2023-09-06T08:11:28Z</time>
      </trkpt>
      <trkpt lat="44.91835" lon="3.94065">
        <ele>940.44</ele>
        <time>2023-09-06T08:11:48Z</time>
      </trkpt>
      <trkpt lat="44.91843" lon="3.9404">
        <ele>941.44</ele>
        <time>2023-09-06T08:12:04Z</time>
      </trkpt>
      <trkpt lat="44.91853" lon="3.94016">
        <ele>941.44</ele>
        <time>2023-09-06T08:12:20Z</time>
      </trkpt>
      <trkpt lat="44.91857" lon="3.9399">
        <ele>941.44</ele>
        <time>2023-09-06T08:12:36Z</time>
      </trkpt>
      <trkpt lat="44.91843" lon="3.93969">
        <ele>941.44</ele>
        <time>2023-09-06T08:13:00Z</time>
      </trkpt>
      <trkpt lat="44.91823" lon="3.9396">
        <ele>943.44</ele>
        <time>2023-09-06T08:13:20Z</time>
      </trkpt>
      <trkpt lat="44.91805" lon="3.93957">
        <ele>943.44</ele>
        <time>2023-09-06T08:13:36Z</time>
      </trkpt>
      <trkpt lat="44.91787" lon="3.93951">
        <ele>944.44</ele>
        <time>2023-09-06T08:13:52Z</time>
      </trkpt>
      <trkpt lat="44.91773" lon="3.93928">
        <ele>943.44</ele>
        <time>2023-09-06T08:14:12Z</time>
      </trkpt>
      <trkpt lat="44.91762" lon="3.93903">
        <ele>943.44</ele>
        <time>2023-09-06T08:14:40Z</time>
      </trkpt>
      <trkpt lat="44.91747" lon="3.93882">
        <ele>945.44</ele>
        <time>2023-09-06T08:15:00Z</time>
      </trkpt>
      <trkpt lat="44.91733" lon="3.9386">
        <ele>944.44</ele>
        <time>2023-09-06T08:15:16Z</time>
      </trkpt>
      <trkpt lat="44.91712" lon="3.93856">
        <ele>945.44</ele>
        <time>2023-09-06T08:15:48Z</time>
      </trkpt>
      <trkpt lat="44.91691" lon="3.93863">
        <ele>946.44</ele>
        <time>2023-09-06T08:16:08Z</time>
      </trkpt>
      <trkpt lat="44.9167" lon="3.93867">
        <ele>947.44</ele>
        <time>2023-09-06T08:16:28Z</time>
      </trkpt>
      <trkpt lat="44.91652" lon="3.9387">
        <ele>946.44</ele>
        <time>2023-09-06T08:16:44Z</time>
      </trkpt>
      <trkpt lat="44.91631" lon="3.93872">
        <ele>948.44</ele>
        <time>2023-09-06T08:17:04Z</time>
      </trkpt>
      <trkpt lat="44.91609" lon="3.93876">
        <ele>949.44</ele>
        <time>2023-09-06T08:17:48Z</time>
      </trkpt>
      <trkpt lat="44.91591" lon="3.9388">
        <ele>947.44</ele>
        <time>2023-09-06T08:18:04Z</time>
      </trkpt>
      <trkpt lat="44.91572" lon="3.93879">
        <ele>948.44</ele>
        <time>2023-09-06T08:18:20Z</time>
      </trkpt>
      <trkpt lat="44.91549" lon="3.93879">
        <ele>948.44</ele>
        <time>2023-09-06T08:18:40Z</time>
      </trkpt>
      <trkpt lat="44.91531" lon="3.93873">
        <ele>949.44</ele>
        <time>2023-09-06T08:18:56Z</time>
      </trkpt>
      <trkpt lat="44.91513" lon="3.93866">
        <ele>949.44</ele>
        <time>2023-09-06T08:19:12Z</time>
      </trkpt>
      <trkpt lat="44.91495" lon="3.93863">
        <ele>949.44</ele>
        <time>2023-09-06T08:19:28Z</time>
      </trkpt>
      <trkpt lat="44.91473" lon="3.93853">
        <ele>951.44</ele>
        <time>2023-09-06T08:20:04Z</time>
      </trkpt>
      <trkpt lat="44.91454" lon="3.93846">
        <ele>952.44</ele>
        <time>2023-09-06T08:20:20Z</time>
      </trkpt>
      <trkpt lat="44.91438" lon="3.93834">
        <ele>952.44</ele>
        <time>2023-09-06T08:20:36Z</time>
      </trkpt>
      <trkpt lat="44.91421" lon="3.93824">
        <ele>951.44</ele>
        <time>2023-09-06T08:20:52Z</time>
      </trkpt>
      <trkpt lat="44.91401" lon="3.93813">
        <ele>953.44</ele>
        <time>2023-09-06T08:21:12Z</time>
      </trkpt>
      <trkpt lat="44.91383" lon="3.93804">
        <ele>954.44</ele>
        <time>2023-09-06T08:21:28Z</time>
      </trkpt>
      <trkpt lat="44.91361" lon="3.938">
        <ele>955.44</ele>
        <time>2023-09-06T08:21:48Z</time>
      </trkpt>
      <trkpt lat="44.91343" lon="3.93796">
        <ele>957.44</ele>
        <time>2023-09-06T08:22:04Z</time>
      </trkpt>
      <trkpt lat="44.91322" lon="3.93791">
        <ele>956.44</ele>
        <time>2023-09-06T08:22:24Z</time>
      </trkpt>
      <trkpt lat="44.91304" lon="3.93778">
        <ele>958.44</ele>
        <time>2023-09-06T08:23:20Z</time>
      </trkpt>
      <trkpt lat="44.91285" lon="3.93768">
        <ele>959.44</ele>
        <time>2023-09-06T08:23:40Z</time>
      </trkpt>
      <trkpt lat="44.91264" lon="3.93765">
        <ele>962.44</ele>
        <time>2023-09-06T08:24:00Z</time>
      </trkpt>
      <trkpt lat="44.91243" lon="3.93765">
        <ele>963.44</ele>
        <time>2023-09-06T08:24:20Z</time>
      </trkpt>
      <trkpt lat="44.91223" lon="3.93766">
        <ele>963.44</ele>
        <time>2023-09-06T08:24:40Z</time>
      </trkpt>
      <trkpt lat="44.91203" lon="3.93764">
        <ele>966.44</ele>
        <time>2023-09-06T08:25:00Z</time>
      </trkpt>
      <trkpt lat="44.91182" lon="3.9376">
        <ele>968.44</ele>
        <time>2023-09-06T08:25:24Z</time>
      </trkpt>
      <trkpt lat="44.91163" lon="3.93752">
        <ele>969.44</ele>
        <time>2023-09-06T08:25:44Z</time>
      </trkpt>
      <trkpt lat="44.91146" lon="3.93737">
        <ele>971.44</ele>
        <time>2023-09-06T08:26:04Z</time>
      </trkpt>
      <trkpt lat="44.9113" lon="3.9372">
        <ele>972.44</ele>
        <time>2023-09-06T08:26:24Z</time>
      </trkpt>
      <trkpt lat="44.91112" lon="3.93704">
        <ele>971.44</ele>
        <time>2023-09-06T08:27:08Z</time>
      </trkpt>
      <trkpt lat="44.91092" lon="3.93693">
        <ele>975.44</ele>
        <time>2023-09-06T08:27:28Z</time>
      </trkpt>
      <trkpt lat="44.9107" lon="3.93689">
        <ele>978.44</ele>
        <time>2023-09-06T08:27:48Z</time>
      </trkpt>
      <trkpt lat="44.9105" lon="3.9368">
        <ele>980.44</ele>
        <time>2023-09-06T08:28:09Z</time>
      </trkpt>
      <trkpt lat="44.91033" lon="3.93669">
        <ele>980.44</ele>
        <time>2023-09-06T08:28:27Z</time>
      </trkpt>
      <trkpt lat="44.91016" lon="3.93652">
        <ele>981.44</ele>
        <time>2023-09-06T08:28:47Z</time>
      </trkpt>
      <trkpt lat="44.90997" lon="3.93641">
        <ele>981.44</ele>
        <time>2023-09-06T08:29:07Z</time>
      </trkpt>
      <trkpt lat="44.90979" lon="3.9363">
        <ele>982.44</ele>
        <time>2023-09-06T08:29:31Z</time>
      </trkpt>
      <trkpt lat="44.90961" lon="3.93621">
        <ele>984.44</ele>
        <time>2023-09-06T08:30:07Z</time>
      </trkpt>
      <trkpt lat="44.90943" lon="3.93613">
        <ele>987.44</ele>
        <time>2023-09-06T08:30:27Z</time>
      </trkpt>
      <trkpt lat="44.90921" lon="3.93602">
        <ele>988.44</ele>
        <time>2023-09-06T08:30:47Z</time>
      </trkpt>
      <trkpt lat="44.90903" lon="3.93596">
        <ele>991.44</ele>
        <time>2023-09-06T08:31:07Z</time>
      </trkpt>
      <trkpt lat="44.90882" lon="3.93601">
        <ele>994.44</ele>
        <time>2023-09-06T08:31:27Z</time>
      </trkpt>
      <trkpt lat="44.90863" lon="3.93598">
        <ele>997.44</ele>
        <time>2023-09-06T08:31:47Z</time>
      </trkpt>
      <trkpt lat="44.90843" lon="3.93589">
        <ele>999.44</ele>
        <time>2023-09-06T08:32:03Z</time>
      </trkpt>
      <trkpt lat="44.90823" lon="3.93576">
        <ele>1002.44</ele>
        <time>2023-09-06T08:32:19Z</time>
      </trkpt>
      <trkpt lat="44.90804" lon="3.93565">
        <ele>1004.44</ele>
        <time>2023-09-06T08:32:35Z</time>
      </trkpt>
      <trkpt lat="44.90784" lon="3.93571">
        <ele>1006.44</ele>
        <time>2023-09-06T08:32:51Z</time>
      </trkpt>
      <trkpt lat="44.90762" lon="3.93571">
        <ele>1007.44</ele>
        <time>2023-09-06T08:33:11Z</time>
      </trkpt>
      <trkpt lat="44.90741" lon="3.93574">
        <ele>1010.44</ele>
        <time>2023-09-06T08:33:31Z</time>
      </trkpt>
      <trkpt lat="44.90719" lon="3.93581">
        <ele>1013.44</ele>
        <time>2023-09-06T08:33:51Z</time>
      </trkpt>
      <trkpt lat="44.907" lon="3.9359">
        <ele>1013.44</ele>
        <time>2023-09-06T08:34:07Z</time>
      </trkpt>
      <trkpt lat="44.90681" lon="3.93589">
        <ele>1014.44</ele>
        <time>2023-09-06T08:34:23Z</time>
      </trkpt>
      <trkpt lat="44.90661" lon="3.93586">
        <ele>1015.44</ele>
        <time>2023-09-06T08:34:39Z</time>
      </trkpt>
      <trkpt lat="44.90639" lon="3.93584">
        <ele>1016.44</ele>
        <time>2023-09-06T08:34:55Z</time>
      </trkpt>
      <trkpt lat="44.90619" lon="3.93583">
        <ele>1016.44</ele>
        <time>2023-09-06T08:35:11Z</time>
      </trkpt>
      <trkpt lat="44.90599" lon="3.93584">
        <ele>1015.44</ele>
        <time>2023-09-06T08:35:27Z</time>
      </trkpt>
      <trkpt lat="44.90583" lon="3.93568">
        <ele>1013.44</ele>
        <time>2023-09-06T08:35:43Z</time>
      </trkpt>
      <trkpt lat="44.90577" lon="3.93544">
        <ele>1015.44</ele>
        <time>2023-09-06T08:35:59Z</time>
      </trkpt>
      <trkpt lat="44.90563" lon="3.9352">
        <ele>1014.44</ele>
        <time>2023-09-06T08:36:16Z</time>
      </trkpt>
      <trkpt lat="44.90552" lon="3.93499">
        <ele>1011.44</ele>
        <time>2023-09-06T08:36:32Z</time>
      </trkpt>
      <trkpt lat="44.9056" lon="3.93475">
        <ele>1011.44</ele>
        <time>2023-09-06T08:36:52Z</time>
      </trkpt>
      <trkpt lat="44.90548" lon="3.93455">
        <ele>1005.44</ele>
        <time>2023-09-06T08:59:43Z</time>
      </trkpt>
      <trkpt lat="44.9053" lon="3.93449">
        <ele>1001.44</ele>
        <time>2023-09-06T09:00:55Z</time>
      </trkpt>
      <trkpt lat="44.90509" lon="3.93438">
        <ele>1003.44</ele>
        <time>2023-09-06T09:01:15Z</time>
      </trkpt>
      <trkpt lat="44.90495" lon="3.93422">
        <ele>1001.44</ele>
        <time>2023-09-06T09:01:31Z</time>
      </trkpt>
      <trkpt lat="44.90481" lon="3.93399">
        <ele>997.44</ele>
        <time>2023-09-06T09:01:51Z</time>
      </trkpt>
      <trkpt lat="44.90473" lon="3.93374">
        <ele>995.44</ele>
        <time>2023-09-06T09:02:07Z</time>
      </trkpt>
      <trkpt lat="44.90465" lon="3.93349">
        <ele>996.44</ele>
        <time>2023-09-06T09:02:23Z</time>
      </trkpt>
      <trkpt lat="44.90452" lon="3.9333">
        <ele>996.44</ele>
        <time>2023-09-06T09:02:39Z</time>
      </trkpt>
      <trkpt lat="44.90436" lon="3.93317">
        <ele>997.44</ele>
        <time>2023-09-06T09:02:55Z</time>
      </trkpt>
      <trkpt lat="44.90418" lon="3.93308">
        <ele>998.44</ele>
        <time>2023-09-06T09:03:15Z</time>
      </trkpt>
      <trkpt lat="44.90399" lon="3.93298">
        <ele>997.44</ele>
        <time>2023-09-06T09:03:32Z</time>
      </trkpt>
      <trkpt lat="44.90383" lon="3.93285">
        <ele>999.44</ele>
        <time>2023-09-06T09:03:52Z</time>
      </trkpt>
      <trkpt lat="44.90369" lon="3.93267">
        <ele>1000.44</ele>
        <time>2023-09-06T09:04:08Z</time>
      </trkpt>
      <trkpt lat="44.90359" lon="3.93244">
        <ele>1002.44</ele>
        <time>2023-09-06T09:04:24Z</time>
      </trkpt>
      <trkpt lat="44.90346" lon="3.93224">
        <ele>1000.44</ele>
        <time>2023-09-06T09:04:40Z</time>
      </trkpt>
      <trkpt lat="44.90332" lon="3.93206">
        <ele>1002.44</ele>
        <time>2023-09-06T09:04:56Z</time>
      </trkpt>
      <trkpt lat="44.90318" lon="3.93189">
        <ele>1001.44</ele>
        <time>2023-09-06T09:05:12Z</time>
      </trkpt>
      <trkpt lat="44.90299" lon="3.93176">
        <ele>1001.44</ele>
        <time>2023-09-06T09:05:32Z</time>
      </trkpt>
      <trkpt lat="44.90281" lon="3.93161">
        <ele>1000.44</ele>
        <time>2023-09-06T09:06:04Z</time>
      </trkpt>
      <trkpt lat="44.90265" lon="3.93148">
        <ele>999.44</ele>
        <time>2023-09-06T09:06:20Z</time>
      </trkpt>
      <trkpt lat="44.90249" lon="3.93127">
        <ele>1002.44</ele>
        <time>2023-09-06T09:06:40Z</time>
      </trkpt>
      <trkpt lat="44.90234" lon="3.93109">
        <ele>1003.44</ele>
        <time>2023-09-06T09:07:00Z</time>
      </trkpt>
      <trkpt lat="44.9022" lon="3.9309">
        <ele>1003.44</ele>
        <time>2023-09-06T09:07:36Z</time>
      </trkpt>
      <trkpt lat="44.90204" lon="3.93076">
        <ele>999.44</ele>
        <time>2023-09-06T09:08:04Z</time>
      </trkpt>
      <trkpt lat="44.90189" lon="3.93058">
        <ele>999.44</ele>
        <time>2023-09-06T09:08:20Z</time>
      </trkpt>
      <trkpt lat="44.90174" lon="3.93043">
        <ele>996.44</ele>
        <time>2023-09-06T09:08:36Z</time>
      </trkpt>
      <trkpt lat="44.90158" lon="3.93029">
        <ele>995.44</ele>
        <time>2023-09-06T09:08:52Z</time>
      </trkpt>
      <trkpt lat="44.90142" lon="3.93014">
        <ele>994.44</ele>
        <time>2023-09-06T09:09:08Z</time>
      </trkpt>
      <trkpt lat="44.90127" lon="3.92995">
        <ele>995.44</ele>
        <time>2023-09-06T09:09:24Z</time>
      </trkpt>
      <trkpt lat="44.90113" lon="3.92977">
        <ele>994.44</ele>
        <time>2023-09-06T09:09:40Z</time>
      </trkpt>
      <trkpt lat="44.90099" lon="3.92959">
        <ele>995.44</ele>
        <time>2023-09-06T09:09:56Z</time>
      </trkpt>
      <trkpt lat="44.90082" lon="3.92941">
        <ele>993.44</ele>
        <time>2023-09-06T09:10:12Z</time>
      </trkpt>
      <trkpt lat="44.90067" lon="3.9292">
        <ele>993.44</ele>
        <time>2023-09-06T09:10:28Z</time>
      </trkpt>
      <trkpt lat="44.90051" lon="3.92899">
        <ele>991.44</ele>
        <time>2023-09-06T09:10:48Z</time>
      </trkpt>
      <trkpt lat="44.90037" lon="3.92881">
        <ele>988.44</ele>
        <time>2023-09-06T09:11:04Z</time>
      </trkpt>
      <trkpt lat="44.9002" lon="3.92861">
        <ele>988.44</ele>
        <time>2023-09-06T09:11:24Z</time>
      </trkpt>
      <trkpt lat="44.90004" lon="3.92841">
        <ele>985.44</ele>
        <time>2023-09-06T09:11:52Z</time>
      </trkpt>
      <trkpt lat="44.89987" lon="3.92819">
        <ele>984.44</ele>
        <time>2023-09-06T09:12:12Z</time>
      </trkpt>
      <trkpt lat="44.89968" lon="3.92806">
        <ele>981.44</ele>
        <time>2023-09-06T09:12:32Z</time>
      </trkpt>
      <trkpt lat="44.89949" lon="3.92803">
        <ele>979.44</ele>
        <time>2023-09-06T09:12:52Z</time>
      </trkpt>
      <trkpt lat="44.8993" lon="3.92798">
        <ele>975.44</ele>
        <time>2023-09-06T09:13:12Z</time>
      </trkpt>
      <trkpt lat="44.89912" lon="3.92796">
        <ele>972.44</ele>
        <time>2023-09-06T09:13:32Z</time>
      </trkpt>
      <trkpt lat="44.89892" lon="3.92791">
        <ele>969.44</ele>
        <time>2023-09-06T09:13:52Z</time>
      </trkpt>
      <trkpt lat="44.89871" lon="3.92788">
        <ele>965.44</ele>
        <time>2023-09-06T09:14:16Z</time>
      </trkpt>
      <trkpt lat="44.89852" lon="3.92782">
        <ele>961.44</ele>
        <time>2023-09-06T09:14:36Z</time>
      </trkpt>
      <trkpt lat="44.89834" lon="3.92774">
        <ele>957.44</ele>
        <time>2023-09-06T09:14:56Z</time>
      </trkpt>
      <trkpt lat="44.89815" lon="3.92765">
        <ele>955.44</ele>
        <time>2023-09-06T09:15:16Z</time>
      </trkpt>
      <trkpt lat="44.89797" lon="3.92763">
        <ele>951.44</ele>
        <time>2023-09-06T09:15:32Z</time>
      </trkpt>
      <trkpt lat="44.89775" lon="3.9276">
        <ele>947.44</ele>
        <time>2023-09-06T09:15:52Z</time>
      </trkpt>
      <trkpt lat="44.89755" lon="3.92751">
        <ele>945.44</ele>
        <time>2023-09-06T09:16:12Z</time>
      </trkpt>
      <trkpt lat="44.89739" lon="3.92736">
        <ele>943.44</ele>
        <time>2023-09-06T09:16:28Z</time>
      </trkpt>
      <trkpt lat="44.89722" lon="3.92721">
        <ele>942.44</ele>
        <time>2023-09-06T09:16:48Z</time>
      </trkpt>
      <trkpt lat="44.89702" lon="3.92714">
        <ele>939.44</ele>
        <time>2023-09-06T09:17:09Z</time>
      </trkpt>
      <trkpt lat="44.89683" lon="3.92713">
        <ele>936.44</ele>
        <time>2023-09-06T09:17:29Z</time>
      </trkpt>
      <trkpt lat="44.89662" lon="3.92704">
        <ele>933.44</ele>
        <time>2023-09-06T09:17:49Z</time>
      </trkpt>
      <trkpt lat="44.89644" lon="3.927">
        <ele>929.44</ele>
        <time>2023-09-06T09:18:09Z</time>
      </trkpt>
      <trkpt lat="44.89624" lon="3.9269">
        <ele>927.44</ele>
        <time>2023-09-06T09:18:29Z</time>
      </trkpt>
      <trkpt lat="44.89605" lon="3.9268">
        <ele>924.44</ele>
        <time>2023-09-06T09:18:45Z</time>
      </trkpt>
      <trkpt lat="44.89585" lon="3.92669">
        <ele>920.44</ele>
        <time>2023-09-06T09:19:05Z</time>
      </trkpt>
      <trkpt lat="44.89567" lon="3.92662">
        <ele>920.44</ele>
        <time>2023-09-06T09:19:29Z</time>
      </trkpt>
      <trkpt lat="44.89547" lon="3.9266">
        <ele>914.44</ele>
        <time>2023-09-06T09:19:53Z</time>
      </trkpt>
      <trkpt lat="44.8953" lon="3.92651">
        <ele>912.44</ele>
        <time>2023-09-06T09:20:13Z</time>
      </trkpt>
      <trkpt lat="44.89512" lon="3.92641">
        <ele>910.44</ele>
        <time>2023-09-06T09:20:33Z</time>
      </trkpt>
      <trkpt lat="44.89492" lon="3.92632">
        <ele>905.44</ele>
        <time>2023-09-06T09:20:53Z</time>
      </trkpt>
      <trkpt lat="44.89475" lon="3.9262">
        <ele>901.44</ele>
        <time>2023-09-06T09:21:09Z</time>
      </trkpt>
      <trkpt lat="44.89457" lon="3.92617">
        <ele>901.44</ele>
        <time>2023-09-06T09:21:29Z</time>
      </trkpt>
      <trkpt lat="44.89444" lon="3.92597">
        <ele>902.44</ele>
        <time>2023-09-06T09:21:49Z</time>
      </trkpt>
      <trkpt lat="44.89438" lon="3.92572">
        <ele>898.44</ele>
        <time>2023-09-06T09:22:09Z</time>
      </trkpt>
      <trkpt lat="44.89428" lon="3.92543">
        <ele>891.44</ele>
        <time>2023-09-06T09:22:37Z</time>
      </trkpt>
      <trkpt lat="44.89419" lon="3.9252">
        <ele>888.44</ele>
        <time>2023-09-06T09:22:57Z</time>
      </trkpt>
      <trkpt lat="44.8941" lon="3.92493">
        <ele>884.44</ele>
        <time>2023-09-06T09:23:17Z</time>
      </trkpt>
      <trkpt lat="44.89405" lon="3.92468">
        <ele>884.44</ele>
        <time>2023-09-06T09:23:41Z</time>
      </trkpt>
      <trkpt lat="44.89398" lon="3.92438">
        <ele>879.44</ele>
        <time>2023-09-06T09:24:21Z</time>
      </trkpt>
      <trkpt lat="44.89398" lon="3.92406">
        <ele>876.44</ele>
        <time>2023-09-06T09:24:45Z</time>
      </trkpt>
      <trkpt lat="44.89393" lon="3.92378">
        <ele>873.44</ele>
        <time>2023-09-06T09:25:02Z</time>
      </trkpt>
      <trkpt lat="44.8939" lon="3.92347">
        <ele>868.44</ele>
        <time>2023-09-06T09:25:22Z</time>
      </trkpt>
      <trkpt lat="44.89381" lon="3.92317">
        <ele>864.44</ele>
        <time>2023-09-06T09:25:43Z</time>
      </trkpt>
      <trkpt lat="44.89364" lon="3.92296">
        <ele>858.44</ele>
        <time>2023-09-06T09:26:08Z</time>
      </trkpt>
      <trkpt lat="44.89347" lon="3.92278">
        <ele>852.44</ele>
        <time>2023-09-06T09:26:28Z</time>
      </trkpt>
      <trkpt lat="44.8933" lon="3.9227">
        <ele>851.44</ele>
        <time>2023-09-06T09:26:44Z</time>
      </trkpt>
      <trkpt lat="44.89345" lon="3.92254">
        <ele>849.44</ele>
        <time>2023-09-06T09:27:04Z</time>
      </trkpt>
      <trkpt lat="44.89326" lon="3.92245">
        <ele>844.44</ele>
        <time>2023-09-06T09:27:20Z</time>
      </trkpt>
      <trkpt lat="44.89308" lon="3.92249">
        <ele>843.44</ele>
        <time>2023-09-06T09:29:36Z</time>
      </trkpt>
      <trkpt lat="44.89292" lon="3.92267">
        <ele>839.44</ele>
        <time>2023-09-06T09:29:56Z</time>
      </trkpt>
      <trkpt lat="44.89277" lon="3.92282">
        <ele>837.44</ele>
        <time>2023-09-06T09:30:12Z</time>
      </trkpt>
      <trkpt lat="44.89262" lon="3.92298">
        <ele>835.44</ele>
        <time>2023-09-06T09:30:28Z</time>
      </trkpt>
      <trkpt lat="44.89248" lon="3.92314">
        <ele>832.44</ele>
        <time>2023-09-06T09:30:48Z</time>
      </trkpt>
      <trkpt lat="44.89232" lon="3.92332">
        <ele>830.44</ele>
        <time>2023-09-06T09:31:08Z</time>
      </trkpt>
      <trkpt lat="44.89213" lon="3.92345">
        <ele>827.44</ele>
        <time>2023-09-06T09:31:24Z</time>
      </trkpt>
      <trkpt lat="44.892" lon="3.92364">
        <ele>824.44</ele>
        <time>2023-09-06T09:31:40Z</time>
      </trkpt>
      <trkpt lat="44.89186" lon="3.92383">
        <ele>821.44</ele>
        <time>2023-09-06T09:31:56Z</time>
      </trkpt>
      <trkpt lat="44.89172" lon="3.92403">
        <ele>818.44</ele>
        <time>2023-09-06T09:32:12Z</time>
      </trkpt>
      <trkpt lat="44.89161" lon="3.92429">
        <ele>816.44</ele>
        <time>2023-09-06T09:32:28Z</time>
      </trkpt>
      <trkpt lat="44.89147" lon="3.92448">
        <ele>815.44</ele>
        <time>2023-09-06T09:32:44Z</time>
      </trkpt>
      <trkpt lat="44.89131" lon="3.92472">
        <ele>811.44</ele>
        <time>2023-09-06T09:33:04Z</time>
      </trkpt>
      <trkpt lat="44.89118" lon="3.92492">
        <ele>810.44</ele>
        <time>2023-09-06T09:33:20Z</time>
      </trkpt>
      <trkpt lat="44.89102" lon="3.92508">
        <ele>802.44</ele>
        <time>2023-09-06T09:33:44Z</time>
      </trkpt>
      <trkpt lat="44.89086" lon="3.92487">
        <ele>799.44</ele>
        <time>2023-09-06T09:43:19Z</time>
      </trkpt>
      <trkpt lat="44.89068" lon="3.92477">
        <ele>795.44</ele>
        <time>2023-09-06T09:43:47Z</time>
      </trkpt>
      <trkpt lat="44.89049" lon="3.9247">
        <ele>794.44</ele>
        <time>2023-09-06T09:44:04Z</time>
      </trkpt>
      <trkpt lat="44.89031" lon="3.92463">
        <ele>792.44</ele>
        <time>2023-09-06T09:44:21Z</time>
      </trkpt>
      <trkpt lat="44.89013" lon="3.92456">
        <ele>790.44</ele>
        <time>2023-09-06T09:44:37Z</time>
      </trkpt>
      <trkpt lat="44.88992" lon="3.92457">
        <ele>786.44</ele>
        <time>2023-09-06T09:45:05Z</time>
      </trkpt>
      <trkpt lat="44.88972" lon="3.92468">
        <ele>783.44</ele>
        <time>2023-09-06T09:45:25Z</time>
      </trkpt>
      <trkpt lat="44.88951" lon="3.92464">
        <ele>780.44</ele>
        <time>2023-09-06T09:45:45Z</time>
      </trkpt>
      <trkpt lat="44.88928" lon="3.9246">
        <ele>778.44</ele>
        <time>2023-09-06T09:46:05Z</time>
      </trkpt>
      <trkpt lat="44.8892" lon="3.92428">
        <ele>773.44</ele>
        <time>2023-09-06T09:46:33Z</time>
      </trkpt>
      <trkpt lat="44.88923" lon="3.924">
        <ele>772.44</ele>
        <time>2023-09-06T09:46:53Z</time>
      </trkpt>
      <trkpt lat="44.88923" lon="3.92375">
        <ele>770.44</ele>
        <time>2023-09-06T09:47:57Z</time>
      </trkpt>
      <trkpt lat="44.88924" lon="3.92349">
        <ele>770.44</ele>
        <time>2023-09-06T09:48:13Z</time>
      </trkpt>
      <trkpt lat="44.88927" lon="3.92319">
        <ele>771.44</ele>
        <time>2023-09-06T09:48:29Z</time>
      </trkpt>
      <trkpt lat="44.88923" lon="3.92292">
        <ele>772.44</ele>
        <time>2023-09-06T09:48:49Z</time>
      </trkpt>
      <trkpt lat="44.88907" lon="3.92272">
        <ele>775.44</ele>
        <time>2023-09-06T09:49:22Z</time>
      </trkpt>
      <trkpt lat="44.88896" lon="3.9225">
        <ele>777.44</ele>
        <time>2023-09-06T09:49:38Z</time>
      </trkpt>
      <trkpt lat="44.88897" lon="3.92225">
        <ele>773.44</ele>
        <time>2023-09-06T09:50:34Z</time>
      </trkpt>
      <trkpt lat="44.88916" lon="3.92212">
        <ele>772.44</ele>
        <time>2023-09-06T09:51:26Z</time>
      </trkpt>
      <trkpt lat="44.88932" lon="3.92201">
        <ele>774.44</ele>
        <time>2023-09-06T09:51:46Z</time>
      </trkpt>
      <trkpt lat="44.88954" lon="3.922">
        <ele>776.44</ele>
        <time>2023-09-06T09:52:06Z</time>
      </trkpt>
      <trkpt lat="44.88969" lon="3.92182">
        <ele>776.44</ele>
        <time>2023-09-06T09:52:26Z</time>
      </trkpt>
      <trkpt lat="44.88977" lon="3.92154">
        <ele>779.44</ele>
        <time>2023-09-06T09:52:46Z</time>
      </trkpt>
      <trkpt lat="44.88978" lon="3.92125">
        <ele>779.44</ele>
        <time>2023-09-06T09:53:06Z</time>
      </trkpt>
      <trkpt lat="44.88981" lon="3.921">
        <ele>781.44</ele>
        <time>2023-09-06T09:53:22Z</time>
      </trkpt>
      <trkpt lat="44.88982" lon="3.9207">
        <ele>783.44</ele>
        <time>2023-09-06T09:53:42Z</time>
      </trkpt>
      <trkpt lat="44.88985" lon="3.92043">
        <ele>784.44</ele>
        <time>2023-09-06T09:54:02Z</time>
      </trkpt>
      <trkpt lat="44.88992" lon="3.92016">
        <ele>785.44</ele>
        <time>2023-09-06T09:54:22Z</time>
      </trkpt>
      <trkpt lat="44.88998" lon="3.91987">
        <ele>787.44</ele>
        <time>2023-09-06T09:54:42Z</time>
      </trkpt>
      <trkpt lat="44.89004" lon="3.91959">
        <ele>791.44</ele>
        <time>2023-09-06T09:55:02Z</time>
      </trkpt>
      <trkpt lat="44.89014" lon="3.91932">
        <ele>794.44</ele>
        <time>2023-09-06T09:55:22Z</time>
      </trkpt>
      <trkpt lat="44.89021" lon="3.91904">
        <ele>796.44</ele>
        <time>2023-09-06T09:55:42Z</time>
      </trkpt>
      <trkpt lat="44.89024" lon="3.91875">
        <ele>797.44</ele>
        <time>2023-09-06T09:56:02Z</time>
      </trkpt>
      <trkpt lat="44.89027" lon="3.91848">
        <ele>798.44</ele>
        <time>2023-09-06T09:56:22Z</time>
      </trkpt>
      <trkpt lat="44.89028" lon="3.91822">
        <ele>800.44</ele>
        <time>2023-09-06T09:56:38Z</time>
      </trkpt>
      <trkpt lat="44.8903" lon="3.9179">
        <ele>801.44</ele>
        <time>2023-09-06T09:56:58Z</time>
      </trkpt>
      <trkpt lat="44.89035" lon="3.91759">
        <ele>805.44</ele>
        <time>2023-09-06T09:57:18Z</time>
      </trkpt>
      <trkpt lat="44.89037" lon="3.91729">
        <ele>804.44</ele>
        <time>2023-09-06T09:57:38Z</time>
      </trkpt>
      <trkpt lat="44.89042" lon="3.91703">
        <ele>805.44</ele>
        <time>2023-09-06T09:57:58Z</time>
      </trkpt>
      <trkpt lat="44.89039" lon="3.91677">
        <ele>802.44</ele>
        <time>2023-09-06T09:58:14Z</time>
      </trkpt>
      <trkpt lat="44.89034" lon="3.9165">
        <ele>801.44</ele>
        <time>2023-09-06T09:58:34Z</time>
      </trkpt>
      <trkpt lat="44.89034" lon="3.91624">
        <ele>802.44</ele>
        <time>2023-09-06T09:58:55Z</time>
      </trkpt>
      <trkpt lat="44.89026" lon="3.91601">
        <ele>801.44</ele>
        <time>2023-09-06T09:59:20Z</time>
      </trkpt>
      <trkpt lat="44.89025" lon="3.91573">
        <ele>801.44</ele>
        <time>2023-09-06T09:59:40Z</time>
      </trkpt>
      <trkpt lat="44.89025" lon="3.91542">
        <ele>798.44</ele>
        <time>2023-09-06T10:00:00Z</time>
      </trkpt>
      <trkpt lat="44.89023" lon="3.91512">
        <ele>798.44</ele>
        <time>2023-09-06T10:00:20Z</time>
      </trkpt>
      <trkpt lat="44.89021" lon="3.91484">
        <ele>796.44</ele>
        <time>2023-09-06T10:00:40Z</time>
      </trkpt>
      <trkpt lat="44.89023" lon="3.91458">
        <ele>795.44</ele>
        <time>2023-09-06T10:01:12Z</time>
      </trkpt>
      <trkpt lat="44.89025" lon="3.9143">
        <ele>800.44</ele>
        <time>2023-09-06T10:01:32Z</time>
      </trkpt>
      <trkpt lat="44.89015" lon="3.91406">
        <ele>802.44</ele>
        <time>2023-09-06T10:01:56Z</time>
      </trkpt>
      <trkpt lat="44.88997" lon="3.91413">
        <ele>804.44</ele>
        <time>2023-09-06T10:02:24Z</time>
      </trkpt>
      <trkpt lat="44.88977" lon="3.91411">
        <ele>805.44</ele>
        <time>2023-09-06T10:02:52Z</time>
      </trkpt>
      <trkpt lat="44.88971" lon="3.91386">
        <ele>818.44</ele>
        <time>2023-09-06T10:03:32Z</time>
      </trkpt>
      <trkpt lat="44.88954" lon="3.91378">
        <ele>821.44</ele>
        <time>2023-09-06T10:03:56Z</time>
      </trkpt>
      <trkpt lat="44.88936" lon="3.91384">
        <ele>823.44</ele>
        <time>2023-09-06T10:04:28Z</time>
      </trkpt>
      <trkpt lat="44.88921" lon="3.9137">
        <ele>834.44</ele>
        <time>2023-09-06T10:05:12Z</time>
      </trkpt>
      <trkpt lat="44.88901" lon="3.91364">
        <ele>838.44</ele>
        <time>2023-09-06T10:05:48Z</time>
      </trkpt>
      <trkpt lat="44.88883" lon="3.91359">
        <ele>842.44</ele>
        <time>2023-09-06T10:06:20Z</time>
      </trkpt>
      <trkpt lat="44.88864" lon="3.9135">
        <ele>845.44</ele>
        <time>2023-09-06T10:06:48Z</time>
      </trkpt>
      <trkpt lat="44.88846" lon="3.91348">
        <ele>851.44</ele>
        <time>2023-09-06T10:07:20Z</time>
      </trkpt>
      <trkpt lat="44.88828" lon="3.91344">
        <ele>857.44</ele>
        <time>2023-09-06T10:07:48Z</time>
      </trkpt>
      <trkpt lat="44.88808" lon="3.9134">
        <ele>861.44</ele>
        <time>2023-09-06T10:08:20Z</time>
      </trkpt>
      <trkpt lat="44.88787" lon="3.91336">
        <ele>865.44</ele>
        <time>2023-09-06T10:23:17Z</time>
      </trkpt>
      <trkpt lat="44.88767" lon="3.91336">
        <ele>869.44</ele>
        <time>2023-09-06T10:23:53Z</time>
      </trkpt>
      <trkpt lat="44.88747" lon="3.91335">
        <ele>873.44</ele>
        <time>2023-09-06T10:24:29Z</time>
      </trkpt>
      <trkpt lat="44.88729" lon="3.91332">
        <ele>880.44</ele>
        <time>2023-09-06T10:25:09Z</time>
      </trkpt>
      <trkpt lat="44.8871" lon="3.91335">
        <ele>880.44</ele>
        <time>2023-09-06T10:25:41Z</time>
      </trkpt>
      <trkpt lat="44.88693" lon="3.91353">
        <ele>881.44</ele>
        <time>2023-09-06T10:26:09Z</time>
      </trkpt>
      <trkpt lat="44.88677" lon="3.91368">
        <ele>885.44</ele>
        <time>2023-09-06T10:26:29Z</time>
      </trkpt>
      <trkpt lat="44.8866" lon="3.91381">
        <ele>887.44</ele>
        <time>2023-09-06T10:26:53Z</time>
      </trkpt>
      <trkpt lat="44.88638" lon="3.9139">
        <ele>888.44</ele>
        <time>2023-09-06T10:27:17Z</time>
      </trkpt>
      <trkpt lat="44.88616" lon="3.91393">
        <ele>890.44</ele>
        <time>2023-09-06T10:27:37Z</time>
      </trkpt>
      <trkpt lat="44.88595" lon="3.91398">
        <ele>893.44</ele>
        <time>2023-09-06T10:27:57Z</time>
      </trkpt>
      <trkpt lat="44.88576" lon="3.91387">
        <ele>895.44</ele>
        <time>2023-09-06T10:28:17Z</time>
      </trkpt>
      <trkpt lat="44.88565" lon="3.91366">
        <ele>898.44</ele>
        <time>2023-09-06T10:28:37Z</time>
      </trkpt>
      <trkpt lat="44.88562" lon="3.91339">
        <ele>901.44</ele>
        <time>2023-09-06T10:29:05Z</time>
      </trkpt>
      <trkpt lat="44.88568" lon="3.91314">
        <ele>905.44</ele>
        <time>2023-09-06T10:30:17Z</time>
      </trkpt>
      <trkpt lat="44.88574" lon="3.91289">
        <ele>908.44</ele>
        <time>2023-09-06T10:30:42Z</time>
      </trkpt>
      <trkpt lat="44.88576" lon="3.91258">
        <ele>909.44</ele>
        <time>2023-09-06T10:31:10Z</time>
      </trkpt>
      <trkpt lat="44.88578" lon="3.91232">
        <ele>916.44</ele>
        <time>2023-09-06T10:31:34Z</time>
      </trkpt>
      <trkpt lat="44.88582" lon="3.91206">
        <ele>919.44</ele>
        <time>2023-09-06T10:31:58Z</time>
      </trkpt>
      <trkpt lat="44.88573" lon="3.9118">
        <ele>927.44</ele>
        <time>2023-09-06T10:32:26Z</time>
      </trkpt>
      <trkpt lat="44.88559" lon="3.91162">
        <ele>928.44</ele>
        <time>2023-09-06T10:32:50Z</time>
      </trkpt>
      <trkpt lat="44.88579" lon="3.91155">
        <ele>931.44</ele>
        <time>2023-09-06T10:33:38Z</time>
      </trkpt>
      <trkpt lat="44.88598" lon="3.91151">
        <ele>933.44</ele>
        <time>2023-09-06T10:34:02Z</time>
      </trkpt>
      <trkpt lat="44.88615" lon="3.91136">
        <ele>937.44</ele>
        <time>2023-09-06T10:34:26Z</time>
      </trkpt>
      <trkpt lat="44.88619" lon="3.91109">
        <ele>942.44</ele>
        <time>2023-09-06T10:34:50Z</time>
      </trkpt>
      <trkpt lat="44.88616" lon="3.91079">
        <ele>944.44</ele>
        <time>2023-09-06T10:35:14Z</time>
      </trkpt>
      <trkpt lat="44.88614" lon="3.91052">
        <ele>949.44</ele>
        <time>2023-09-06T10:35:35Z</time>
      </trkpt>
      <trkpt lat="44.88617" lon="3.91026">
        <ele>949.44</ele>
        <time>2023-09-06T10:36:03Z</time>
      </trkpt>
      <trkpt lat="44.88615" lon="3.90997">
        <ele>950.44</ele>
        <time>2023-09-06T10:36:23Z</time>
      </trkpt>
      <trkpt lat="44.88615" lon="3.90969">
        <ele>952.44</ele>
        <time>2023-09-06T10:36:43Z</time>
      </trkpt>
      <trkpt lat="44.88615" lon="3.90937">
        <ele>953.44</ele>
        <time>2023-09-06T10:37:03Z</time>
      </trkpt>
      <trkpt lat="44.88616" lon="3.90909">
        <ele>955.44</ele>
        <time>2023-09-06T10:37:23Z</time>
      </trkpt>
      <trkpt lat="44.88621" lon="3.9088">
        <ele>957.44</ele>
        <time>2023-09-06T10:37:43Z</time>
      </trkpt>
      <trkpt lat="44.8862" lon="3.90851">
        <ele>959.44</ele>
        <time>2023-09-06T10:38:03Z</time>
      </trkpt>
      <trkpt lat="44.88615" lon="3.9082">
        <ele>960.44</ele>
        <time>2023-09-06T10:38:23Z</time>
      </trkpt>
      <trkpt lat="44.8862" lon="3.90795">
        <ele>958.44</ele>
        <time>2023-09-06T10:38:39Z</time>
      </trkpt>
      <trkpt lat="44.88621" lon="3.90767">
        <ele>960.44</ele>
        <time>2023-09-06T10:38:59Z</time>
      </trkpt>
      <trkpt lat="44.88622" lon="3.90738">
        <ele>960.44</ele>
        <time>2023-09-06T10:39:19Z</time>
      </trkpt>
      <trkpt lat="44.88624" lon="3.90707">
        <ele>961.44</ele>
        <time>2023-09-06T10:54:06Z</time>
      </trkpt>
      <trkpt lat="44.8862" lon="3.9068">
        <ele>961.44</ele>
        <time>2023-09-06T10:54:26Z</time>
      </trkpt>
      <trkpt lat="44.88613" lon="3.90652">
        <ele>960.44</ele>
        <time>2023-09-06T10:54:50Z</time>
      </trkpt>
      <trkpt lat="44.886" lon="3.90632">
        <ele>956.44</ele>
        <time>2023-09-06T10:55:10Z</time>
      </trkpt>
      <trkpt lat="44.88589" lon="3.90607">
        <ele>954.44</ele>
        <time>2023-09-06T10:55:30Z</time>
      </trkpt>
      <trkpt lat="44.88586" lon="3.90576">
        <ele>954.44</ele>
        <time>2023-09-06T10:55:50Z</time>
      </trkpt>
      <trkpt lat="44.88588" lon="3.90551">
        <ele>954.44</ele>
        <time>2023-09-06T10:56:06Z</time>
      </trkpt>
      <trkpt lat="44.88594" lon="3.90525">
        <ele>955.44</ele>
        <time>2023-09-06T10:56:26Z</time>
      </trkpt>
      <trkpt lat="44.88598" lon="3.90515">
        <ele>958.44</ele>
        <time>2023-09-06T11:38:29Z</time>
      </trkpt>
      <trkpt lat="44.88606" lon="3.90432">
        <ele>966.44</ele>
        <time>2023-09-06T11:40:02Z</time>
      </trkpt>
      <trkpt lat="44.88621" lon="3.90487">
        <ele>1007.44</ele>
        <time>2023-09-06T11:40:06Z</time>
      </trkpt>
      <trkpt lat="44.88607" lon="3.90527">
        <ele>1104.44</ele>
        <time>2023-09-06T11:40:15Z</time>
      </trkpt>
      <trkpt lat="44.88624" lon="3.90552">
        <ele>1089.44</ele>
        <time>2023-09-06T11:40:16Z</time>
      </trkpt>
      <trkpt lat="44.88606" lon="3.9055">
        <ele>1090.44</ele>
        <time>2023-09-06T11:40:20Z</time>
      </trkpt>
      <trkpt lat="44.8859" lon="3.9053">
        <ele>1070.44</ele>
        <time>2023-09-06T11:40:28Z</time>
      </trkpt>
      <trkpt lat="44.88611" lon="3.90536">
        <ele>952.44</ele>
        <time>2023-09-06T11:41:23Z</time>
      </trkpt>
      <trkpt lat="44.88634" lon="3.90529">
        <ele>951.44</ele>
        <time>2023-09-06T11:41:39Z</time>
      </trkpt>
      <trkpt lat="44.88651" lon="3.90521">
        <ele>952.44</ele>
        <time>2023-09-06T11:41:55Z</time>
      </trkpt>
      <trkpt lat="44.88671" lon="3.90508">
        <ele>953.44</ele>
        <time>2023-09-06T11:42:11Z</time>
      </trkpt>
      <trkpt lat="44.8869" lon="3.90499">
        <ele>953.44</ele>
        <time>2023-09-06T11:42:23Z</time>
      </trkpt>
      <trkpt lat="44.88707" lon="3.90487">
        <ele>955.44</ele>
        <time>2023-09-06T11:42:35Z</time>
      </trkpt>
      <trkpt lat="44.88725" lon="3.90472">
        <ele>958.44</ele>
        <time>2023-09-06T11:42:51Z</time>
      </trkpt>
      <trkpt lat="44.88743" lon="3.90463">
        <ele>961.44</ele>
        <time>2023-09-06T11:43:07Z</time>
      </trkpt>
      <trkpt lat="44.88763" lon="3.90452">
        <ele>962.44</ele>
        <time>2023-09-06T11:43:23Z</time>
      </trkpt>
      <trkpt lat="44.88784" lon="3.90444">
        <ele>964.44</ele>
        <time>2023-09-06T11:43:39Z</time>
      </trkpt>
      <trkpt lat="44.88805" lon="3.90437">
        <ele>966.44</ele>
        <time>2023-09-06T11:43:55Z</time>
      </trkpt>
      <trkpt lat="44.88831" lon="3.90433">
        <ele>967.44</ele>
        <time>2023-09-06T11:44:15Z</time>
      </trkpt>
      <trkpt lat="44.88852" lon="3.90421">
        <ele>966.44</ele>
        <time>2023-09-06T11:44:27Z</time>
      </trkpt>
      <trkpt lat="44.88872" lon="3.90404">
        <ele>967.44</ele>
        <time>2023-09-06T11:44:43Z</time>
      </trkpt>
      <trkpt lat="44.88884" lon="3.9038">
        <ele>966.44</ele>
        <time>2023-09-06T11:44:59Z</time>
      </trkpt>
      <trkpt lat="44.8889" lon="3.90351">
        <ele>967.44</ele>
        <time>2023-09-06T11:45:19Z</time>
      </trkpt>
      <trkpt lat="44.88896" lon="3.90326">
        <ele>970.44</ele>
        <time>2023-09-06T11:45:39Z</time>
      </trkpt>
      <trkpt lat="44.88899" lon="3.90299">
        <ele>974.44</ele>
        <time>2023-09-06T11:46:03Z</time>
      </trkpt>
      <trkpt lat="44.88891" lon="3.90275">
        <ele>975.44</ele>
        <time>2023-09-06T11:46:23Z</time>
      </trkpt>
      <trkpt lat="44.88878" lon="3.90255">
        <ele>973.44</ele>
        <time>2023-09-06T11:46:47Z</time>
      </trkpt>
      <trkpt lat="44.88867" lon="3.90231">
        <ele>973.44</ele>
        <time>2023-09-06T11:47:07Z</time>
      </trkpt>
      <trkpt lat="44.88856" lon="3.90205">
        <ele>974.44</ele>
        <time>2023-09-06T11:47:27Z</time>
      </trkpt>
      <trkpt lat="44.88849" lon="3.90178">
        <ele>972.44</ele>
        <time>2023-09-06T11:47:47Z</time>
      </trkpt>
      <trkpt lat="44.88846" lon="3.9015">
        <ele>970.44</ele>
        <time>2023-09-06T11:48:07Z</time>
      </trkpt>
      <trkpt lat="44.8885" lon="3.90123">
        <ele>971.44</ele>
        <time>2023-09-06T11:48:24Z</time>
      </trkpt>
      <trkpt lat="44.88846" lon="3.90095">
        <ele>973.44</ele>
        <time>2023-09-06T11:48:48Z</time>
      </trkpt>
      <trkpt lat="44.88839" lon="3.90066">
        <ele>971.44</ele>
        <time>2023-09-06T11:49:12Z</time>
      </trkpt>
      <trkpt lat="44.88837" lon="3.90035">
        <ele>967.44</ele>
        <time>2023-09-06T11:49:36Z</time>
      </trkpt>
      <trkpt lat="44.88836" lon="3.9001">
        <ele>965.44</ele>
        <time>2023-09-06T11:49:52Z</time>
      </trkpt>
      <trkpt lat="44.88831" lon="3.89983">
        <ele>965.44</ele>
        <time>2023-09-06T11:50:12Z</time>
      </trkpt>
      <trkpt lat="44.88825" lon="3.89957">
        <ele>961.44</ele>
        <time>2023-09-06T11:50:32Z</time>
      </trkpt>
      <trkpt lat="44.88818" lon="3.89931">
        <ele>961.44</ele>
        <time>2023-09-06T11:50:52Z</time>
      </trkpt>
      <trkpt lat="44.88813" lon="3.89903">
        <ele>961.44</ele>
        <time>2023-09-06T11:51:12Z</time>
      </trkpt>
      <trkpt lat="44.88817" lon="3.89873">
        <ele>961.44</ele>
        <time>2023-09-06T11:51:32Z</time>
      </trkpt>
      <trkpt lat="44.88821" lon="3.89847">
        <ele>960.44</ele>
        <time>2023-09-06T11:51:48Z</time>
      </trkpt>
      <trkpt lat="44.88831" lon="3.89821">
        <ele>958.44</ele>
        <time>2023-09-06T11:52:08Z</time>
      </trkpt>
      <trkpt lat="44.8884" lon="3.89799">
        <ele>956.44</ele>
        <time>2023-09-06T11:52:24Z</time>
      </trkpt>
      <trkpt lat="44.88847" lon="3.89774">
        <ele>954.44</ele>
        <time>2023-09-06T11:52:40Z</time>
      </trkpt>
      <trkpt lat="44.88852" lon="3.89749">
        <ele>952.44</ele>
        <time>2023-09-06T11:52:56Z</time>
      </trkpt>
      <trkpt lat="44.88853" lon="3.89721">
        <ele>950.44</ele>
        <time>2023-09-06T11:53:16Z</time>
      </trkpt>
      <trkpt lat="44.88845" lon="3.89693">
        <ele>949.44</ele>
        <time>2023-09-06T11:53:36Z</time>
      </trkpt>
      <trkpt lat="44.88839" lon="3.89666">
        <ele>946.44</ele>
        <time>2023-09-06T11:53:56Z</time>
      </trkpt>
      <trkpt lat="44.88833" lon="3.89642">
        <ele>945.44</ele>
        <time>2023-09-06T11:54:13Z</time>
      </trkpt>
      <trkpt lat="44.88828" lon="3.89615">
        <ele>947.44</ele>
        <time>2023-09-06T11:54:33Z</time>
      </trkpt>
      <trkpt lat="44.8882" lon="3.89587">
        <ele>947.44</ele>
        <time>2023-09-06T11:54:57Z</time>
      </trkpt>
      <trkpt lat="44.88812" lon="3.8956">
        <ele>945.44</ele>
        <time>2023-09-06T11:55:17Z</time>
      </trkpt>
      <trkpt lat="44.88807" lon="3.89531">
        <ele>945.44</ele>
        <time>2023-09-06T11:55:37Z</time>
      </trkpt>
      <trkpt lat="44.88801" lon="3.89503">
        <ele>945.44</ele>
        <time>2023-09-06T11:55:57Z</time>
      </trkpt>
      <trkpt lat="44.88792" lon="3.89475">
        <ele>943.44</ele>
        <time>2023-09-06T11:56:17Z</time>
      </trkpt>
      <trkpt lat="44.88778" lon="3.89455">
        <ele>944.44</ele>
        <time>2023-09-06T11:56:37Z</time>
      </trkpt>
      <trkpt lat="44.88762" lon="3.89439">
        <ele>945.44</ele>
        <time>2023-09-06T11:57:01Z</time>
      </trkpt>
      <trkpt lat="44.88746" lon="3.89426">
        <ele>949.44</ele>
        <time>2023-09-06T11:57:21Z</time>
      </trkpt>
      <trkpt lat="44.88727" lon="3.89414">
        <ele>950.44</ele>
        <time>2023-09-06T11:57:41Z</time>
      </trkpt>
      <trkpt lat="44.88711" lon="3.89395">
        <ele>950.44</ele>
        <time>2023-09-06T11:58:01Z</time>
      </trkpt>
      <trkpt lat="44.88696" lon="3.89375">
        <ele>951.44</ele>
        <time>2023-09-06T11:58:21Z</time>
      </trkpt>
      <trkpt lat="44.88681" lon="3.8936">
        <ele>953.44</ele>
        <time>2023-09-06T11:58:41Z</time>
      </trkpt>
      <trkpt lat="44.88667" lon="3.89344">
        <ele>954.44</ele>
        <time>2023-09-06T11:59:01Z</time>
      </trkpt>
      <trkpt lat="44.8865" lon="3.8933">
        <ele>956.44</ele>
        <time>2023-09-06T11:59:25Z</time>
      </trkpt>
      <trkpt lat="44.88632" lon="3.89325">
        <ele>958.44</ele>
        <time>2023-09-06T11:59:49Z</time>
      </trkpt>
      <trkpt lat="44.88615" lon="3.89313">
        <ele>958.44</ele>
        <time>2023-09-06T12:00:13Z</time>
      </trkpt>
      <trkpt lat="44.88602" lon="3.89294">
        <ele>960.44</ele>
        <time>2023-09-06T12:00:33Z</time>
      </trkpt>
      <trkpt lat="44.88589" lon="3.89271">
        <ele>957.44</ele>
        <time>2023-09-06T12:00:53Z</time>
      </trkpt>
      <trkpt lat="44.88576" lon="3.89248">
        <ele>959.44</ele>
        <time>2023-09-06T12:01:13Z</time>
      </trkpt>
      <trkpt lat="44.88564" lon="3.89223">
        <ele>960.44</ele>
        <time>2023-09-06T12:01:37Z</time>
      </trkpt>
      <trkpt lat="44.88545" lon="3.89209">
        <ele>961.44</ele>
        <time>2023-09-06T12:01:57Z</time>
      </trkpt>
      <trkpt lat="44.88527" lon="3.892">
        <ele>961.44</ele>
        <time>2023-09-06T12:02:18Z</time>
      </trkpt>
      <trkpt lat="44.88509" lon="3.89192">
        <ele>963.44</ele>
        <time>2023-09-06T12:02:34Z</time>
      </trkpt>
      <trkpt lat="44.8849" lon="3.89183">
        <ele>966.44</ele>
        <time>2023-09-06T12:02:54Z</time>
      </trkpt>
      <trkpt lat="44.88472" lon="3.89179">
        <ele>963.44</ele>
        <time>2023-09-06T12:03:14Z</time>
      </trkpt>
      <trkpt lat="44.88454" lon="3.89172">
        <ele>964.44</ele>
        <time>2023-09-06T12:03:30Z</time>
      </trkpt>
      <trkpt lat="44.88434" lon="3.89166">
        <ele>965.44</ele>
        <time>2023-09-06T12:03:50Z</time>
      </trkpt>
      <trkpt lat="44.88414" lon="3.8916">
        <ele>966.44</ele>
        <time>2023-09-06T12:04:11Z</time>
      </trkpt>
      <trkpt lat="44.88393" lon="3.89152">
        <ele>966.44</ele>
        <time>2023-09-06T12:04:31Z</time>
      </trkpt>
      <trkpt lat="44.88372" lon="3.89143">
        <ele>967.44</ele>
        <time>2023-09-06T12:04:51Z</time>
      </trkpt>
      <trkpt lat="44.88352" lon="3.89136">
        <ele>968.44</ele>
        <time>2023-09-06T12:05:11Z</time>
      </trkpt>
      <trkpt lat="44.88334" lon="3.89127">
        <ele>970.44</ele>
        <time>2023-09-06T12:05:31Z</time>
      </trkpt>
      <trkpt lat="44.88312" lon="3.89117">
        <ele>973.44</ele>
        <time>2023-09-06T12:05:55Z</time>
      </trkpt>
      <trkpt lat="44.88295" lon="3.89107">
        <ele>973.44</ele>
        <time>2023-09-06T12:06:15Z</time>
      </trkpt>
      <trkpt lat="44.88285" lon="3.89084">
        <ele>976.44</ele>
        <time>2023-09-06T12:06:31Z</time>
      </trkpt>
      <trkpt lat="44.88273" lon="3.8906">
        <ele>975.44</ele>
        <time>2023-09-06T12:07:03Z</time>
      </trkpt>
      <trkpt lat="44.88269" lon="3.89035">
        <ele>971.44</ele>
        <time>2023-09-06T12:10:54Z</time>
      </trkpt>
      <trkpt lat="44.88284" lon="3.89011">
        <ele>970.44</ele>
        <time>2023-09-06T12:11:14Z</time>
      </trkpt>
      <trkpt lat="44.88303" lon="3.89004">
        <ele>970.44</ele>
        <time>2023-09-06T12:11:30Z</time>
      </trkpt>
      <trkpt lat="44.88321" lon="3.89003">
        <ele>972.44</ele>
        <time>2023-09-06T12:11:50Z</time>
      </trkpt>
      <trkpt lat="44.88343" lon="3.89007">
        <ele>971.44</ele>
        <time>2023-09-06T12:12:10Z</time>
      </trkpt>
      <trkpt lat="44.88364" lon="3.89007">
        <ele>970.44</ele>
        <time>2023-09-06T12:12:30Z</time>
      </trkpt>
      <trkpt lat="44.88385" lon="3.89004">
        <ele>972.44</ele>
        <time>2023-09-06T12:12:58Z</time>
      </trkpt>
      <trkpt lat="44.88371" lon="3.88982">
        <ele>979.44</ele>
        <time>2023-09-06T12:13:59Z</time>
      </trkpt>
      <trkpt lat="44.88361" lon="3.8896">
        <ele>983.44</ele>
        <time>2023-09-06T12:14:23Z</time>
      </trkpt>
      <trkpt lat="44.88374" lon="3.88939">
        <ele>987.44</ele>
        <time>2023-09-06T12:14:51Z</time>
      </trkpt>
      <trkpt lat="44.88387" lon="3.88921">
        <ele>988.44</ele>
        <time>2023-09-06T12:15:11Z</time>
      </trkpt>
      <trkpt lat="44.88393" lon="3.88895">
        <ele>991.44</ele>
        <time>2023-09-06T12:15:35Z</time>
      </trkpt>
      <trkpt lat="44.884" lon="3.8887">
        <ele>992.44</ele>
        <time>2023-09-06T12:15:59Z</time>
      </trkpt>
      <trkpt lat="44.88409" lon="3.88841">
        <ele>996.44</ele>
        <time>2023-09-06T12:16:23Z</time>
      </trkpt>
      <trkpt lat="44.88422" lon="3.8882">
        <ele>997.44</ele>
        <time>2023-09-06T12:16:43Z</time>
      </trkpt>
      <trkpt lat="44.88436" lon="3.88797">
        <ele>998.44</ele>
        <time>2023-09-06T12:17:04Z</time>
      </trkpt>
      <trkpt lat="44.8845" lon="3.88775">
        <ele>1002.44</ele>
        <time>2023-09-06T12:17:24Z</time>
      </trkpt>
      <trkpt lat="44.88462" lon="3.88753">
        <ele>1002.44</ele>
        <time>2023-09-06T12:17:44Z</time>
      </trkpt>
      <trkpt lat="44.88473" lon="3.88727">
        <ele>1003.44</ele>
        <time>2023-09-06T12:18:04Z</time>
      </trkpt>
      <trkpt lat="44.88484" lon="3.88704">
        <ele>1004.44</ele>
        <time>2023-09-06T12:18:24Z</time>
      </trkpt>
      <trkpt lat="44.88495" lon="3.88683">
        <ele>1005.44</ele>
        <time>2023-09-06T12:18:40Z</time>
      </trkpt>
      <trkpt lat="44.88505" lon="3.88657">
        <ele>1007.44</ele>
        <time>2023-09-06T12:19:00Z</time>
      </trkpt>
      <trkpt lat="44.88509" lon="3.88632">
        <ele>1008.44</ele>
        <time>2023-09-06T12:19:16Z</time>
      </trkpt>
      <trkpt lat="44.88508" lon="3.88606">
        <ele>1008.44</ele>
        <time>2023-09-06T12:19:36Z</time>
      </trkpt>
      <trkpt lat="44.88515" lon="3.88581">
        <ele>1008.44</ele>
        <time>2023-09-06T12:19:56Z</time>
      </trkpt>
      <trkpt lat="44.88532" lon="3.88572">
        <ele>1007.44</ele>
        <time>2023-09-06T12:20:12Z</time>
      </trkpt>
      <trkpt lat="44.88545" lon="3.88551">
        <ele>1009.44</ele>
        <time>2023-09-06T12:20:28Z</time>
      </trkpt>
      <trkpt lat="44.8855" lon="3.88524">
        <ele>1009.44</ele>
        <time>2023-09-06T12:20:44Z</time>
      </trkpt>
      <trkpt lat="44.88554" lon="3.88499">
        <ele>1010.44</ele>
        <time>2023-09-06T12:21:00Z</time>
      </trkpt>
      <trkpt lat="44.88561" lon="3.88468">
        <ele>1010.44</ele>
        <time>2023-09-06T12:21:20Z</time>
      </trkpt>
      <trkpt lat="44.8857" lon="3.88441">
        <ele>1011.44</ele>
        <time>2023-09-06T12:21:40Z</time>
      </trkpt>
      <trkpt lat="44.88571" lon="3.8841">
        <ele>1011.44</ele>
        <time>2023-09-06T12:22:00Z</time>
      </trkpt>
      <trkpt lat="44.88589" lon="3.8839">
        <ele>1012.44</ele>
        <time>2023-09-06T12:22:20Z</time>
      </trkpt>
      <trkpt lat="44.88609" lon="3.88388">
        <ele>1013.44</ele>
        <time>2023-09-06T12:22:36Z</time>
      </trkpt>
      <trkpt lat="44.88629" lon="3.88384">
        <ele>1013.44</ele>
        <time>2023-09-06T12:22:52Z</time>
      </trkpt>
      <trkpt lat="44.88648" lon="3.88379">
        <ele>1014.44</ele>
        <time>2023-09-06T12:23:08Z</time>
      </trkpt>
      <trkpt lat="44.88666" lon="3.88374">
        <ele>1013.44</ele>
        <time>2023-09-06T12:23:24Z</time>
      </trkpt>
      <trkpt lat="44.88675" lon="3.88348">
        <ele>1012.44</ele>
        <time>2023-09-06T12:23:44Z</time>
      </trkpt>
      <trkpt lat="44.88671" lon="3.88317">
        <ele>1014.44</ele>
        <time>2023-09-06T12:24:05Z</time>
      </trkpt>
      <trkpt lat="44.8867" lon="3.88291">
        <ele>1013.44</ele>
        <time>2023-09-06T12:24:21Z</time>
      </trkpt>
      <trkpt lat="44.88675" lon="3.88264">
        <ele>1014.44</ele>
        <time>2023-09-06T12:24:37Z</time>
      </trkpt>
      <trkpt lat="44.88692" lon="3.88246">
        <ele>1015.44</ele>
        <time>2023-09-06T12:24:57Z</time>
      </trkpt>
      <trkpt lat="44.88712" lon="3.88244">
        <ele>1018.44</ele>
        <time>2023-09-06T12:25:13Z</time>
      </trkpt>
      <trkpt lat="44.8873" lon="3.88248">
        <ele>1019.44</ele>
        <time>2023-09-06T12:25:29Z</time>
      </trkpt>
      <trkpt lat="44.88748" lon="3.88234">
        <ele>1021.44</ele>
        <time>2023-09-06T12:26:46Z</time>
      </trkpt>
      <trkpt lat="44.88751" lon="3.88205">
        <ele>1024.44</ele>
        <time>2023-09-06T12:27:07Z</time>
      </trkpt>
      <trkpt lat="44.88753" lon="3.88174">
        <ele>1024.44</ele>
        <time>2023-09-06T12:27:27Z</time>
      </trkpt>
      <trkpt lat="44.88753" lon="3.88146">
        <ele>1024.44</ele>
        <time>2023-09-06T12:27:47Z</time>
      </trkpt>
      <trkpt lat="44.88759" lon="3.88119">
        <ele>1026.44</ele>
        <time>2023-09-06T12:28:07Z</time>
      </trkpt>
      <trkpt lat="44.88776" lon="3.88107">
        <ele>1027.44</ele>
        <time>2023-09-06T12:28:23Z</time>
      </trkpt>
      <trkpt lat="44.88791" lon="3.88092">
        <ele>1026.44</ele>
        <time>2023-09-06T12:28:39Z</time>
      </trkpt>
      <trkpt lat="44.8881" lon="3.88086">
        <ele>1026.44</ele>
        <time>2023-09-06T12:28:59Z</time>
      </trkpt>
      <trkpt lat="44.88819" lon="3.88063">
        <ele>1028.44</ele>
        <time>2023-09-06T12:29:19Z</time>
      </trkpt>
      <trkpt lat="44.88809" lon="3.88085">
        <ele>1028.44</ele>
        <time>2023-09-06T12:29:35Z</time>
      </trkpt>
      <trkpt lat="44.8879" lon="3.88096">
        <ele>1028.44</ele>
        <time>2023-09-06T12:30:15Z</time>
      </trkpt>
      <trkpt lat="44.8877" lon="3.88108">
        <ele>1026.44</ele>
        <time>2023-09-06T12:30:31Z</time>
      </trkpt>
      <trkpt lat="44.88757" lon="3.88127">
        <ele>1025.44</ele>
        <time>2023-09-06T12:30:47Z</time>
      </trkpt>
      <trkpt lat="44.88741" lon="3.88106">
        <ele>1032.44</ele>
        <time>2023-09-06T12:42:57Z</time>
      </trkpt>
      <trkpt lat="44.88725" lon="3.88085">
        <ele>1034.44</ele>
        <time>2023-09-06T12:43:17Z</time>
      </trkpt>
      <trkpt lat="44.88707" lon="3.8807">
        <ele>1033.44</ele>
        <time>2023-09-06T12:43:37Z</time>
      </trkpt>
      <trkpt lat="44.8869" lon="3.88057">
        <ele>1034.44</ele>
        <time>2023-09-06T12:44:01Z</time>
      </trkpt>
      <trkpt lat="44.88668" lon="3.88052">
        <ele>1034.44</ele>
        <time>2023-09-06T12:44:22Z</time>
      </trkpt>
      <trkpt lat="44.88649" lon="3.8805">
        <ele>1032.44</ele>
        <time>2023-09-06T12:44:38Z</time>
      </trkpt>
      <trkpt lat="44.88632" lon="3.88039">
        <ele>1033.44</ele>
        <time>2023-09-06T12:44:54Z</time>
      </trkpt>
      <trkpt lat="44.88616" lon="3.88023">
        <ele>1033.44</ele>
        <time>2023-09-06T12:45:10Z</time>
      </trkpt>
      <trkpt lat="44.88597" lon="3.88015">
        <ele>1033.44</ele>
        <time>2023-09-06T12:45:26Z</time>
      </trkpt>
      <trkpt lat="44.88575" lon="3.88008">
        <ele>1033.44</ele>
        <time>2023-09-06T12:45:46Z</time>
      </trkpt>
      <trkpt lat="44.88575" lon="3.87979">
        <ele>1035.44</ele>
        <time>2023-09-06T12:46:10Z</time>
      </trkpt>
      <trkpt lat="44.88578" lon="3.87948">
        <ele>1035.44</ele>
        <time>2023-09-06T12:46:30Z</time>
      </trkpt>
      <trkpt lat="44.88575" lon="3.87921">
        <ele>1035.44</ele>
        <time>2023-09-06T12:46:46Z</time>
      </trkpt>
      <trkpt lat="44.88575" lon="3.87895">
        <ele>1033.44</ele>
        <time>2023-09-06T12:47:02Z</time>
      </trkpt>
      <trkpt lat="44.88574" lon="3.87864">
        <ele>1032.44</ele>
        <time>2023-09-06T12:47:22Z</time>
      </trkpt>
      <trkpt lat="44.88571" lon="3.87836">
        <ele>1035.44</ele>
        <time>2023-09-06T12:47:38Z</time>
      </trkpt>
      <trkpt lat="44.88567" lon="3.87808">
        <ele>1037.44</ele>
        <time>2023-09-06T12:47:54Z</time>
      </trkpt>
      <trkpt lat="44.88566" lon="3.87782">
        <ele>1039.44</ele>
        <time>2023-09-06T12:48:10Z</time>
      </trkpt>
      <trkpt lat="44.88564" lon="3.87752">
        <ele>1039.44</ele>
        <time>2023-09-06T12:48:30Z</time>
      </trkpt>
      <trkpt lat="44.88564" lon="3.87722">
        <ele>1040.44</ele>
        <time>2023-09-06T12:48:50Z</time>
      </trkpt>
      <trkpt lat="44.88566" lon="3.87692">
        <ele>1041.44</ele>
        <time>2023-09-06T12:49:10Z</time>
      </trkpt>
      <trkpt lat="44.88567" lon="3.87667">
        <ele>1044.44</ele>
        <time>2023-09-06T12:49:30Z</time>
      </trkpt>
      <trkpt lat="44.88554" lon="3.87641">
        <ele>1045.44</ele>
        <time>2023-09-06T12:49:50Z</time>
      </trkpt>
      <trkpt lat="44.8854" lon="3.87623">
        <ele>1046.44</ele>
        <time>2023-09-06T12:50:06Z</time>
      </trkpt>
      <trkpt lat="44.88526" lon="3.87599">
        <ele>1047.44</ele>
        <time>2023-09-06T12:50:26Z</time>
      </trkpt>
      <trkpt lat="44.88515" lon="3.87577">
        <ele>1047.44</ele>
        <time>2023-09-06T12:50:42Z</time>
      </trkpt>
      <trkpt lat="44.88494" lon="3.87571">
        <ele>1046.44</ele>
        <time>2023-09-06T12:51:02Z</time>
      </trkpt>
      <trkpt lat="44.88474" lon="3.87575">
        <ele>1046.44</ele>
        <time>2023-09-06T12:51:18Z</time>
      </trkpt>
      <trkpt lat="44.88453" lon="3.87572">
        <ele>1045.44</ele>
        <time>2023-09-06T12:51:38Z</time>
      </trkpt>
      <trkpt lat="44.88446" lon="3.87543">
        <ele>1047.44</ele>
        <time>2023-09-06T12:51:58Z</time>
      </trkpt>
      <trkpt lat="44.88445" lon="3.87511">
        <ele>1048.44</ele>
        <time>2023-09-06T12:52:18Z</time>
      </trkpt>
      <trkpt lat="44.88443" lon="3.87484">
        <ele>1049.44</ele>
        <time>2023-09-06T12:52:34Z</time>
      </trkpt>
      <trkpt lat="44.88436" lon="3.8746">
        <ele>1049.44</ele>
        <time>2023-09-06T12:52:50Z</time>
      </trkpt>
      <trkpt lat="44.88425" lon="3.87438">
        <ele>1049.44</ele>
        <time>2023-09-06T12:53:06Z</time>
      </trkpt>
      <trkpt lat="44.88416" lon="3.87414">
        <ele>1051.44</ele>
        <time>2023-09-06T12:53:22Z</time>
      </trkpt>
      <trkpt lat="44.88417" lon="3.87382">
        <ele>1051.44</ele>
        <time>2023-09-06T12:53:42Z</time>
      </trkpt>
      <trkpt lat="44.88422" lon="3.87355">
        <ele>1050.44</ele>
        <time>2023-09-06T12:53:58Z</time>
      </trkpt>
      <trkpt lat="44.88426" lon="3.87329">
        <ele>1050.44</ele>
        <time>2023-09-06T12:54:14Z</time>
      </trkpt>
      <trkpt lat="44.88427" lon="3.87302">
        <ele>1050.44</ele>
        <time>2023-09-06T12:54:30Z</time>
      </trkpt>
      <trkpt lat="44.8843" lon="3.87272">
        <ele>1050.44</ele>
        <time>2023-09-06T12:54:50Z</time>
      </trkpt>
      <trkpt lat="44.88432" lon="3.87246">
        <ele>1049.44</ele>
        <time>2023-09-06T12:55:06Z</time>
      </trkpt>
      <trkpt lat="44.88435" lon="3.87221">
        <ele>1050.44</ele>
        <time>2023-09-06T12:55:22Z</time>
      </trkpt>
      <trkpt lat="44.88439" lon="3.87194">
        <ele>1050.44</ele>
        <time>2023-09-06T12:55:38Z</time>
      </trkpt>
      <trkpt lat="44.88446" lon="3.87166">
        <ele>1050.44</ele>
        <time>2023-09-06T12:56:28Z</time>
      </trkpt>
      <trkpt lat="44.88454" lon="3.87143">
        <ele>1051.44</ele>
        <time>2023-09-06T12:56:40Z</time>
      </trkpt>
      <trkpt lat="44.88457" lon="3.87112">
        <ele>1050.44</ele>
        <time>2023-09-06T12:56:56Z</time>
      </trkpt>
      <trkpt lat="44.88453" lon="3.87085">
        <ele>1051.44</ele>
        <time>2023-09-06T12:57:12Z</time>
      </trkpt>
      <trkpt lat="44.88449" lon="3.87058">
        <ele>1051.44</ele>
        <time>2023-09-06T12:57:24Z</time>
      </trkpt>
      <trkpt lat="44.88443" lon="3.87026">
        <ele>1052.44</ele>
        <time>2023-09-06T12:57:40Z</time>
      </trkpt>
      <trkpt lat="44.88438" lon="3.86997">
        <ele>1054.44</ele>
        <time>2023-09-06T12:57:56Z</time>
      </trkpt>
      <trkpt lat="44.88436" lon="3.8697">
        <ele>1054.44</ele>
        <time>2023-09-06T12:58:12Z</time>
      </trkpt>
      <trkpt lat="44.88436" lon="3.86943">
        <ele>1054.44</ele>
        <time>2023-09-06T12:58:28Z</time>
      </trkpt>
      <trkpt lat="44.88433" lon="3.86916">
        <ele>1055.44</ele>
        <time>2023-09-06T12:58:44Z</time>
      </trkpt>
      <trkpt lat="44.88431" lon="3.86888">
        <ele>1055.44</ele>
        <time>2023-09-06T12:59:00Z</time>
      </trkpt>
      <trkpt lat="44.88427" lon="3.86855">
        <ele>1055.44</ele>
        <time>2023-09-06T12:59:20Z</time>
      </trkpt>
      <trkpt lat="44.88421" lon="3.86831">
        <ele>1057.44</ele>
        <time>2023-09-06T12:59:36Z</time>
      </trkpt>
      <trkpt lat="44.88416" lon="3.86801">
        <ele>1057.44</ele>
        <time>2023-09-06T12:59:56Z</time>
      </trkpt>
      <trkpt lat="44.88412" lon="3.86775">
        <ele>1056.44</ele>
        <time>2023-09-06T13:00:12Z</time>
      </trkpt>
      <trkpt lat="44.88411" lon="3.86745">
        <ele>1058.44</ele>
        <time>2023-09-06T13:00:32Z</time>
      </trkpt>
      <trkpt lat="44.8841" lon="3.86717">
        <ele>1059.44</ele>
        <time>2023-09-06T13:00:48Z</time>
      </trkpt>
      <trkpt lat="44.88407" lon="3.86686">
        <ele>1060.44</ele>
        <time>2023-09-06T13:01:08Z</time>
      </trkpt>
      <trkpt lat="44.88402" lon="3.86658">
        <ele>1061.44</ele>
        <time>2023-09-06T13:01:24Z</time>
      </trkpt>
      <trkpt lat="44.88399" lon="3.86629">
        <ele>1060.44</ele>
        <time>2023-09-06T13:01:44Z</time>
      </trkpt>
      <trkpt lat="44.88396" lon="3.86603">
        <ele>1059.44</ele>
        <time>2023-09-06T13:02:01Z</time>
      </trkpt>
      <trkpt lat="44.88394" lon="3.86577">
        <ele>1061.44</ele>
        <time>2023-09-06T13:02:17Z</time>
      </trkpt>
      <trkpt lat="44.88389" lon="3.86547">
        <ele>1062.44</ele>
        <time>2023-09-06T13:02:37Z</time>
      </trkpt>
      <trkpt lat="44.88379" lon="3.8652">
        <ele>1063.44</ele>
        <time>2023-09-06T13:02:57Z</time>
      </trkpt>
      <trkpt lat="44.88377" lon="3.86489">
        <ele>1064.44</ele>
        <time>2023-09-06T13:03:17Z</time>
      </trkpt>
      <trkpt lat="44.88376" lon="3.86456">
        <ele>1065.44</ele>
        <time>2023-09-06T13:03:37Z</time>
      </trkpt>
      <trkpt lat="44.88374" lon="3.86427">
        <ele>1066.44</ele>
        <time>2023-09-06T13:03:57Z</time>
      </trkpt>
      <trkpt lat="44.88367" lon="3.86397">
        <ele>1067.44</ele>
        <time>2023-09-06T13:04:17Z</time>
      </trkpt>
      <trkpt lat="44.8836" lon="3.86368">
        <ele>1069.44</ele>
        <time>2023-09-06T13:04:37Z</time>
      </trkpt>
      <trkpt lat="44.88352" lon="3.86344">
        <ele>1070.44</ele>
        <time>2023-09-06T13:04:54Z</time>
      </trkpt>
      <trkpt lat="44.88345" lon="3.8632">
        <ele>1070.44</ele>
        <time>2023-09-06T13:05:10Z</time>
      </trkpt>
      <trkpt lat="44.88335" lon="3.86292">
        <ele>1070.44</ele>
        <time>2023-09-06T13:05:30Z</time>
      </trkpt>
      <trkpt lat="44.88324" lon="3.86271">
        <ele>1072.44</ele>
        <time>2023-09-06T13:05:46Z</time>
      </trkpt>
      <trkpt lat="44.88312" lon="3.86251">
        <ele>1073.44</ele>
        <time>2023-09-06T13:06:02Z</time>
      </trkpt>
      <trkpt lat="44.88298" lon="3.86233">
        <ele>1074.44</ele>
        <time>2023-09-06T13:06:18Z</time>
      </trkpt>
      <trkpt lat="44.88287" lon="3.86212">
        <ele>1074.44</ele>
        <time>2023-09-06T13:06:34Z</time>
      </trkpt>
      <trkpt lat="44.88275" lon="3.86187">
        <ele>1075.44</ele>
        <time>2023-09-06T13:06:54Z</time>
      </trkpt>
      <trkpt lat="44.88262" lon="3.86162">
        <ele>1076.44</ele>
        <time>2023-09-06T13:07:14Z</time>
      </trkpt>
      <trkpt lat="44.88252" lon="3.86134">
        <ele>1077.44</ele>
        <time>2023-09-06T13:07:34Z</time>
      </trkpt>
      <trkpt lat="44.88249" lon="3.86106">
        <ele>1073.44</ele>
        <time>2023-09-06T13:12:00Z</time>
      </trkpt>
      <trkpt lat="44.88239" lon="3.86081">
        <ele>1076.44</ele>
        <time>2023-09-06T13:12:20Z</time>
      </trkpt>
      <trkpt lat="44.88228" lon="3.86054">
        <ele>1077.44</ele>
        <time>2023-09-06T13:12:40Z</time>
      </trkpt>
      <trkpt lat="44.8822" lon="3.86026">
        <ele>1078.44</ele>
        <time>2023-09-06T13:13:00Z</time>
      </trkpt>
      <trkpt lat="44.88213" lon="3.85998">
        <ele>1079.44</ele>
        <time>2023-09-06T13:13:20Z</time>
      </trkpt>
      <trkpt lat="44.88205" lon="3.85971">
        <ele>1080.44</ele>
        <time>2023-09-06T13:13:40Z</time>
      </trkpt>
      <trkpt lat="44.88197" lon="3.85942">
        <ele>1081.44</ele>
        <time>2023-09-06T13:14:00Z</time>
      </trkpt>
      <trkpt lat="44.88195" lon="3.85915">
        <ele>1080.44</ele>
        <time>2023-09-06T13:14:20Z</time>
      </trkpt>
      <trkpt lat="44.88191" lon="3.85887">
        <ele>1081.44</ele>
        <time>2023-09-06T13:14:40Z</time>
      </trkpt>
      <trkpt lat="44.88185" lon="3.85858">
        <ele>1082.44</ele>
        <time>2023-09-06T13:15:00Z</time>
      </trkpt>
      <trkpt lat="44.8818" lon="3.85831">
        <ele>1083.44</ele>
        <time>2023-09-06T13:15:16Z</time>
      </trkpt>
      <trkpt lat="44.88177" lon="3.85806">
        <ele>1082.44</ele>
        <time>2023-09-06T13:15:32Z</time>
      </trkpt>
      <trkpt lat="44.88174" lon="3.8578">
        <ele>1083.44</ele>
        <time>2023-09-06T13:15:48Z</time>
      </trkpt>
      <trkpt lat="44.8817" lon="3.85754">
        <ele>1082.44</ele>
        <time>2023-09-06T13:16:04Z</time>
      </trkpt>
      <trkpt lat="44.88165" lon="3.85724">
        <ele>1083.44</ele>
        <time>2023-09-06T13:16:24Z</time>
      </trkpt>
      <trkpt lat="44.8816" lon="3.857">
        <ele>1084.44</ele>
        <time>2023-09-06T13:16:40Z</time>
      </trkpt>
      <trkpt lat="44.88155" lon="3.85674">
        <ele>1087.44</ele>
        <time>2023-09-06T13:16:56Z</time>
      </trkpt>
      <trkpt lat="44.88148" lon="3.8565">
        <ele>1088.44</ele>
        <time>2023-09-06T13:17:12Z</time>
      </trkpt>
      <trkpt lat="44.88143" lon="3.85621">
        <ele>1090.44</ele>
        <time>2023-09-06T13:17:32Z</time>
      </trkpt>
      <trkpt lat="44.88135" lon="3.85593">
        <ele>1092.44</ele>
        <time>2023-09-06T13:17:52Z</time>
      </trkpt>
      <trkpt lat="44.88128" lon="3.85565">
        <ele>1092.44</ele>
        <time>2023-09-06T13:18:12Z</time>
      </trkpt>
      <trkpt lat="44.88119" lon="3.85539">
        <ele>1093.44</ele>
        <time>2023-09-06T13:18:28Z</time>
      </trkpt>
      <trkpt lat="44.88111" lon="3.8551">
        <ele>1093.44</ele>
        <time>2023-09-06T13:18:44Z</time>
      </trkpt>
      <trkpt lat="44.88103" lon="3.85486">
        <ele>1092.44</ele>
        <time>2023-09-06T13:19:00Z</time>
      </trkpt>
      <trkpt lat="44.88095" lon="3.85463">
        <ele>1092.44</ele>
        <time>2023-09-06T13:19:16Z</time>
      </trkpt>
      <trkpt lat="44.88088" lon="3.85435">
        <ele>1091.44</ele>
        <time>2023-09-06T13:19:32Z</time>
      </trkpt>
      <trkpt lat="44.88083" lon="3.85404">
        <ele>1090.44</ele>
        <time>2023-09-06T13:19:48Z</time>
      </trkpt>
      <trkpt lat="44.8808" lon="3.85373">
        <ele>1090.44</ele>
        <time>2023-09-06T13:20:08Z</time>
      </trkpt>
      <trkpt lat="44.88077" lon="3.85344">
        <ele>1089.44</ele>
        <time>2023-09-06T13:20:24Z</time>
      </trkpt>
      <trkpt lat="44.88078" lon="3.85319">
        <ele>1087.44</ele>
        <time>2023-09-06T13:20:40Z</time>
      </trkpt>
      <trkpt lat="44.88078" lon="3.85291">
        <ele>1086.44</ele>
        <time>2023-09-06T13:20:56Z</time>
      </trkpt>
      <trkpt lat="44.88075" lon="3.85262">
        <ele>1086.44</ele>
        <time>2023-09-06T13:21:12Z</time>
      </trkpt>
      <trkpt lat="44.88073" lon="3.85233">
        <ele>1086.44</ele>
        <time>2023-09-06T13:21:28Z</time>
      </trkpt>
      <trkpt lat="44.88068" lon="3.85206">
        <ele>1086.44</ele>
        <time>2023-09-06T13:21:44Z</time>
      </trkpt>
      <trkpt lat="44.88063" lon="3.8518">
        <ele>1085.44</ele>
        <time>2023-09-06T13:22:00Z</time>
      </trkpt>
      <trkpt lat="44.88058" lon="3.8515">
        <ele>1086.44</ele>
        <time>2023-09-06T13:22:20Z</time>
      </trkpt>
      <trkpt lat="44.88056" lon="3.85118">
        <ele>1085.44</ele>
        <time>2023-09-06T13:22:40Z</time>
      </trkpt>
      <trkpt lat="44.88052" lon="3.85092">
        <ele>1085.44</ele>
        <time>2023-09-06T13:22:56Z</time>
      </trkpt>
      <trkpt lat="44.88047" lon="3.85062">
        <ele>1085.44</ele>
        <time>2023-09-06T13:23:16Z</time>
      </trkpt>
      <trkpt lat="44.8804" lon="3.85038">
        <ele>1088.44</ele>
        <time>2023-09-06T13:23:37Z</time>
      </trkpt>
      <trkpt lat="44.8803" lon="3.85012">
        <ele>1092.44</ele>
        <time>2023-09-06T13:23:57Z</time>
      </trkpt>
      <trkpt lat="44.88019" lon="3.84992">
        <ele>1093.44</ele>
        <time>2023-09-06T13:24:13Z</time>
      </trkpt>
      <trkpt lat="44.88022" lon="3.84962">
        <ele>1093.44</ele>
        <time>2023-09-06T13:24:37Z</time>
      </trkpt>
      <trkpt lat="44.88024" lon="3.84934">
        <ele>1095.44</ele>
        <time>2023-09-06T13:24:53Z</time>
      </trkpt>
      <trkpt lat="44.88023" lon="3.84907">
        <ele>1098.44</ele>
        <time>2023-09-06T13:25:09Z</time>
      </trkpt>
      <trkpt lat="44.88015" lon="3.84881">
        <ele>1097.44</ele>
        <time>2023-09-06T13:25:25Z</time>
      </trkpt>
      <trkpt lat="44.88" lon="3.8486">
        <ele>1096.44</ele>
        <time>2023-09-06T13:25:42Z</time>
      </trkpt>
      <trkpt lat="44.8799" lon="3.84832">
        <ele>1094.44</ele>
        <time>2023-09-06T13:25:58Z</time>
      </trkpt>
      <trkpt lat="44.87985" lon="3.84804">
        <ele>1094.44</ele>
        <time>2023-09-06T13:26:14Z</time>
      </trkpt>
      <trkpt lat="44.87982" lon="3.84778">
        <ele>1093.44</ele>
        <time>2023-09-06T13:26:30Z</time>
      </trkpt>
      <trkpt lat="44.87985" lon="3.84804">
        <ele>1087.44</ele>
        <time>2023-09-06T13:34:10Z</time>
      </trkpt>
      <trkpt lat="44.87983" lon="3.84777">
        <ele>1089.44</ele>
        <time>2023-09-06T13:35:58Z</time>
      </trkpt>
      <trkpt lat="44.87997" lon="3.84755">
        <ele>1089.44</ele>
        <time>2023-09-06T13:36:18Z</time>
      </trkpt>
      <trkpt lat="44.88016" lon="3.84751">
        <ele>1088.44</ele>
        <time>2023-09-06T13:36:34Z</time>
      </trkpt>
      <trkpt lat="44.88035" lon="3.84741">
        <ele>1085.44</ele>
        <time>2023-09-06T13:36:50Z</time>
      </trkpt>
      <trkpt lat="44.88039" lon="3.84715">
        <ele>1084.44</ele>
        <time>2023-09-06T13:37:06Z</time>
      </trkpt>
      <trkpt lat="44.88037" lon="3.84688">
        <ele>1083.44</ele>
        <time>2023-09-06T13:37:18Z</time>
      </trkpt>
      <trkpt lat="44.8804" lon="3.84657">
        <ele>1084.44</ele>
        <time>2023-09-06T13:37:38Z</time>
      </trkpt>
      <trkpt lat="44.88043" lon="3.84627">
        <ele>1086.44</ele>
        <time>2023-09-06T13:37:58Z</time>
      </trkpt>
      <trkpt lat="44.8806" lon="3.84614">
        <ele>1088.44</ele>
        <time>2023-09-06T13:38:14Z</time>
      </trkpt>
      <trkpt lat="44.88082" lon="3.84613">
        <ele>1087.44</ele>
        <time>2023-09-06T13:38:34Z</time>
      </trkpt>
      <trkpt lat="44.881" lon="3.84607">
        <ele>1089.44</ele>
        <time>2023-09-06T13:38:54Z</time>
      </trkpt>
      <trkpt lat="44.88119" lon="3.8459">
        <ele>1090.44</ele>
        <time>2023-09-06T13:39:14Z</time>
      </trkpt>
      <trkpt lat="44.88137" lon="3.84577">
        <ele>1092.44</ele>
        <time>2023-09-06T13:39:30Z</time>
      </trkpt>
      <trkpt lat="44.8815" lon="3.84559">
        <ele>1092.44</ele>
        <time>2023-09-06T13:39:46Z</time>
      </trkpt>
      <trkpt lat="44.88159" lon="3.84534">
        <ele>1095.44</ele>
        <time>2023-09-06T13:40:02Z</time>
      </trkpt>
      <trkpt lat="44.88167" lon="3.84505">
        <ele>1097.44</ele>
        <time>2023-09-06T13:40:22Z</time>
      </trkpt>
      <trkpt lat="44.88177" lon="3.84482">
        <ele>1098.44</ele>
        <time>2023-09-06T13:40:46Z</time>
      </trkpt>
      <trkpt lat="44.88187" lon="3.84459">
        <ele>1098.44</ele>
        <time>2023-09-06T13:41:02Z</time>
      </trkpt>
      <trkpt lat="44.88198" lon="3.84435">
        <ele>1100.44</ele>
        <time>2023-09-06T13:41:22Z</time>
      </trkpt>
      <trkpt lat="44.88211" lon="3.84414">
        <ele>1104.44</ele>
        <time>2023-09-06T13:41:43Z</time>
      </trkpt>
      <trkpt lat="44.88227" lon="3.84393">
        <ele>1105.44</ele>
        <time>2023-09-06T13:42:03Z</time>
      </trkpt>
      <trkpt lat="44.88241" lon="3.84377">
        <ele>1105.44</ele>
        <time>2023-09-06T13:42:19Z</time>
      </trkpt>
      <trkpt lat="44.88254" lon="3.84357">
        <ele>1105.44</ele>
        <time>2023-09-06T13:42:35Z</time>
      </trkpt>
      <trkpt lat="44.88266" lon="3.84335">
        <ele>1105.44</ele>
        <time>2023-09-06T13:42:51Z</time>
      </trkpt>
      <trkpt lat="44.88276" lon="3.84314">
        <ele>1106.44</ele>
        <time>2023-09-06T13:43:07Z</time>
      </trkpt>
      <trkpt lat="44.88288" lon="3.84292">
        <ele>1107.44</ele>
        <time>2023-09-06T13:43:23Z</time>
      </trkpt>
      <trkpt lat="44.883" lon="3.84271">
        <ele>1109.44</ele>
        <time>2023-09-06T13:43:39Z</time>
      </trkpt>
      <trkpt lat="44.88315" lon="3.84251">
        <ele>1109.44</ele>
        <time>2023-09-06T13:43:55Z</time>
      </trkpt>
      <trkpt lat="44.88333" lon="3.84232">
        <ele>1109.44</ele>
        <time>2023-09-06T13:44:15Z</time>
      </trkpt>
      <trkpt lat="44.88348" lon="3.84217">
        <ele>1111.44</ele>
        <time>2023-09-06T13:44:31Z</time>
      </trkpt>
      <trkpt lat="44.88364" lon="3.84197">
        <ele>1113.44</ele>
        <time>2023-09-06T13:44:51Z</time>
      </trkpt>
      <trkpt lat="44.88379" lon="3.84177">
        <ele>1116.44</ele>
        <time>2023-09-06T13:45:11Z</time>
      </trkpt>
      <trkpt lat="44.88394" lon="3.84155">
        <ele>1119.44</ele>
        <time>2023-09-06T13:45:31Z</time>
      </trkpt>
      <trkpt lat="44.88409" lon="3.84133">
        <ele>1119.44</ele>
        <time>2023-09-06T13:45:51Z</time>
      </trkpt>
      <trkpt lat="44.88423" lon="3.84112">
        <ele>1122.44</ele>
        <time>2023-09-06T13:46:11Z</time>
      </trkpt>
      <trkpt lat="44.88437" lon="3.84087">
        <ele>1123.44</ele>
        <time>2023-09-06T13:46:31Z</time>
      </trkpt>
      <trkpt lat="44.88449" lon="3.84061">
        <ele>1125.44</ele>
        <time>2023-09-06T13:46:52Z</time>
      </trkpt>
      <trkpt lat="44.88452" lon="3.84034">
        <ele>1125.44</ele>
        <time>2023-09-06T13:47:08Z</time>
      </trkpt>
      <trkpt lat="44.88453" lon="3.84006">
        <ele>1127.44</ele>
        <time>2023-09-06T13:47:24Z</time>
      </trkpt>
      <trkpt lat="44.88453" lon="3.83975">
        <ele>1127.44</ele>
        <time>2023-09-06T13:47:44Z</time>
      </trkpt>
      <trkpt lat="44.88455" lon="3.83948">
        <ele>1125.44</ele>
        <time>2023-09-06T13:48:00Z</time>
      </trkpt>
      <trkpt lat="44.88459" lon="3.8392">
        <ele>1126.44</ele>
        <time>2023-09-06T13:48:16Z</time>
      </trkpt>
      <trkpt lat="44.88465" lon="3.83895">
        <ele>1124.44</ele>
        <time>2023-09-06T13:48:32Z</time>
      </trkpt>
      <trkpt lat="44.88472" lon="3.8387">
        <ele>1124.44</ele>
        <time>2023-09-06T13:48:48Z</time>
      </trkpt>
      <trkpt lat="44.88478" lon="3.83843">
        <ele>1123.44</ele>
        <time>2023-09-06T13:49:04Z</time>
      </trkpt>
      <trkpt lat="44.88481" lon="3.83817">
        <ele>1122.44</ele>
        <time>2023-09-06T13:49:20Z</time>
      </trkpt>
      <trkpt lat="44.88485" lon="3.83791">
        <ele>1121.44</ele>
        <time>2023-09-06T13:49:36Z</time>
      </trkpt>
      <trkpt lat="44.88494" lon="3.83763">
        <ele>1120.44</ele>
        <time>2023-09-06T13:49:52Z</time>
      </trkpt>
      <trkpt lat="44.88499" lon="3.83736">
        <ele>1121.44</ele>
        <time>2023-09-06T13:50:08Z</time>
      </trkpt>
      <trkpt lat="44.88504" lon="3.8371">
        <ele>1120.44</ele>
        <time>2023-09-06T13:50:24Z</time>
      </trkpt>
      <trkpt lat="44.8851" lon="3.83683">
        <ele>1119.44</ele>
        <time>2023-09-06T13:50:40Z</time>
      </trkpt>
      <trkpt lat="44.88512" lon="3.83657">
        <ele>1120.44</ele>
        <time>2023-09-06T13:50:56Z</time>
      </trkpt>
      <trkpt lat="44.88515" lon="3.83627">
        <ele>1121.44</ele>
        <time>2023-09-06T13:51:12Z</time>
      </trkpt>
      <trkpt lat="44.88515" lon="3.83598">
        <ele>1120.44</ele>
        <time>2023-09-06T13:51:28Z</time>
      </trkpt>
      <trkpt lat="44.88517" lon="3.83572">
        <ele>1120.44</ele>
        <time>2023-09-06T13:51:44Z</time>
      </trkpt>
      <trkpt lat="44.88524" lon="3.83547">
        <ele>1121.44</ele>
        <time>2023-09-06T13:52:00Z</time>
      </trkpt>
      <trkpt lat="44.88529" lon="3.83522">
        <ele>1121.44</ele>
        <time>2023-09-06T13:52:16Z</time>
      </trkpt>
      <trkpt lat="44.88538" lon="3.83495">
        <ele>1120.44</ele>
        <time>2023-09-06T13:52:33Z</time>
      </trkpt>
      <trkpt lat="44.88546" lon="3.83469">
        <ele>1121.44</ele>
        <time>2023-09-06T13:52:49Z</time>
      </trkpt>
      <trkpt lat="44.88553" lon="3.83443">
        <ele>1122.44</ele>
        <time>2023-09-06T13:53:05Z</time>
      </trkpt>
      <trkpt lat="44.8856" lon="3.83418">
        <ele>1122.44</ele>
        <time>2023-09-06T13:53:21Z</time>
      </trkpt>
      <trkpt lat="44.88568" lon="3.83394">
        <ele>1122.44</ele>
        <time>2023-09-06T13:53:37Z</time>
      </trkpt>
      <trkpt lat="44.88571" lon="3.83369">
        <ele>1123.44</ele>
        <time>2023-09-06T13:53:53Z</time>
      </trkpt>
      <trkpt lat="44.88569" lon="3.83341">
        <ele>1126.44</ele>
        <time>2023-09-06T13:54:18Z</time>
      </trkpt>
      <trkpt lat="44.88576" lon="3.83315">
        <ele>1125.44</ele>
        <time>2023-09-06T13:54:34Z</time>
      </trkpt>
      <trkpt lat="44.88581" lon="3.83287">
        <ele>1127.44</ele>
        <time>2023-09-06T13:54:54Z</time>
      </trkpt>
      <trkpt lat="44.88585" lon="3.8326">
        <ele>1128.44</ele>
        <time>2023-09-06T13:55:10Z</time>
      </trkpt>
      <trkpt lat="44.88586" lon="3.83233">
        <ele>1130.44</ele>
        <time>2023-09-06T13:55:26Z</time>
      </trkpt>
      <trkpt lat="44.8859" lon="3.83201">
        <ele>1131.44</ele>
        <time>2023-09-06T13:55:46Z</time>
      </trkpt>
      <trkpt lat="44.88592" lon="3.83169">
        <ele>1133.44</ele>
        <time>2023-09-06T13:56:06Z</time>
      </trkpt>
      <trkpt lat="44.88597" lon="3.83143">
        <ele>1132.44</ele>
        <time>2023-09-06T13:56:22Z</time>
      </trkpt>
      <trkpt lat="44.88615" lon="3.83126">
        <ele>1133.44</ele>
        <time>2023-09-06T13:56:39Z</time>
      </trkpt>
      <trkpt lat="44.88633" lon="3.83112">
        <ele>1133.44</ele>
        <time>2023-09-06T13:56:56Z</time>
      </trkpt>
      <trkpt lat="44.88653" lon="3.831">
        <ele>1134.44</ele>
        <time>2023-09-06T13:57:12Z</time>
      </trkpt>
      <trkpt lat="44.8867" lon="3.8309">
        <ele>1133.44</ele>
        <time>2023-09-06T13:57:28Z</time>
      </trkpt>
      <trkpt lat="44.88689" lon="3.83081">
        <ele>1135.44</ele>
        <time>2023-09-06T13:57:44Z</time>
      </trkpt>
      <trkpt lat="44.88705" lon="3.83064">
        <ele>1136.44</ele>
        <time>2023-09-06T13:58:00Z</time>
      </trkpt>
      <trkpt lat="44.88717" lon="3.83043">
        <ele>1136.44</ele>
        <time>2023-09-06T13:58:16Z</time>
      </trkpt>
      <trkpt lat="44.8873" lon="3.83023">
        <ele>1135.44</ele>
        <time>2023-09-06T13:58:32Z</time>
      </trkpt>
      <trkpt lat="44.88742" lon="3.83">
        <ele>1135.44</ele>
        <time>2023-09-06T13:58:48Z</time>
      </trkpt>
      <trkpt lat="44.88757" lon="3.82982">
        <ele>1133.44</ele>
        <time>2023-09-06T13:59:04Z</time>
      </trkpt>
      <trkpt lat="44.88777" lon="3.82975">
        <ele>1137.44</ele>
        <time>2023-09-06T13:59:20Z</time>
      </trkpt>
      <trkpt lat="44.88796" lon="3.82964">
        <ele>1133.44</ele>
        <time>2023-09-06T13:59:36Z</time>
      </trkpt>
      <trkpt lat="44.8881" lon="3.82944">
        <ele>1133.44</ele>
        <time>2023-09-06T13:59:52Z</time>
      </trkpt>
      <trkpt lat="44.88831" lon="3.82938">
        <ele>1132.44</ele>
        <time>2023-09-06T14:00:36Z</time>
      </trkpt>
      <trkpt lat="44.88835" lon="3.82907">
        <ele>1136.44</ele>
        <time>2023-09-06T14:01:08Z</time>
      </trkpt>
      <trkpt lat="44.88833" lon="3.82879">
        <ele>1141.44</ele>
        <time>2023-09-06T14:01:24Z</time>
      </trkpt>
      <trkpt lat="44.88832" lon="3.82852">
        <ele>1137.44</ele>
        <time>2023-09-06T14:01:40Z</time>
      </trkpt>
      <trkpt lat="44.88823" lon="3.82823">
        <ele>1138.44</ele>
        <time>2023-09-06T14:02:00Z</time>
      </trkpt>
      <trkpt lat="44.88814" lon="3.82797">
        <ele>1137.44</ele>
        <time>2023-09-06T14:02:16Z</time>
      </trkpt>
      <trkpt lat="44.88808" lon="3.8277">
        <ele>1136.44</ele>
        <time>2023-09-06T14:02:32Z</time>
      </trkpt>
      <trkpt lat="44.88798" lon="3.82743">
        <ele>1135.44</ele>
        <time>2023-09-06T14:02:48Z</time>
      </trkpt>
      <trkpt lat="44.88789" lon="3.82716">
        <ele>1135.44</ele>
        <time>2023-09-06T14:03:04Z</time>
      </trkpt>
      <trkpt lat="44.88781" lon="3.82692">
        <ele>1136.44</ele>
        <time>2023-09-06T14:03:20Z</time>
      </trkpt>
      <trkpt lat="44.88771" lon="3.82663">
        <ele>1137.44</ele>
        <time>2023-09-06T14:03:36Z</time>
      </trkpt>
      <trkpt lat="44.88763" lon="3.82636">
        <ele>1136.44</ele>
        <time>2023-09-06T14:03:52Z</time>
      </trkpt>
      <trkpt lat="44.8876" lon="3.82604">
        <ele>1136.44</ele>
        <time>2023-09-06T14:04:08Z</time>
      </trkpt>
      <trkpt lat="44.8876" lon="3.82576">
        <ele>1137.44</ele>
        <time>2023-09-06T14:04:24Z</time>
      </trkpt>
      <trkpt lat="44.88757" lon="3.82547">
        <ele>1137.44</ele>
        <time>2023-09-06T14:04:40Z</time>
      </trkpt>
      <trkpt lat="44.88755" lon="3.82518">
        <ele>1138.44</ele>
        <time>2023-09-06T14:04:56Z</time>
      </trkpt>
      <trkpt lat="44.88752" lon="3.8249">
        <ele>1139.44</ele>
        <time>2023-09-06T14:05:12Z</time>
      </trkpt>
      <trkpt lat="44.8875" lon="3.82461">
        <ele>1139.44</ele>
        <time>2023-09-06T14:05:28Z</time>
      </trkpt>
      <trkpt lat="44.88746" lon="3.82433">
        <ele>1141.44</ele>
        <time>2023-09-06T14:05:44Z</time>
      </trkpt>
      <trkpt lat="44.88743" lon="3.82401">
        <ele>1141.44</ele>
        <time>2023-09-06T14:06:00Z</time>
      </trkpt>
      <trkpt lat="44.88742" lon="3.82372">
        <ele>1140.44</ele>
        <time>2023-09-06T14:06:16Z</time>
      </trkpt>
      <trkpt lat="44.8874" lon="3.8234">
        <ele>1141.44</ele>
        <time>2023-09-06T14:06:36Z</time>
      </trkpt>
      <trkpt lat="44.88738" lon="3.82312">
        <ele>1140.44</ele>
        <time>2023-09-06T14:06:52Z</time>
      </trkpt>
      <trkpt lat="44.88737" lon="3.82284">
        <ele>1142.44</ele>
        <time>2023-09-06T14:07:12Z</time>
      </trkpt>
      <trkpt lat="44.8874" lon="3.82253">
        <ele>1144.44</ele>
        <time>2023-09-06T14:07:28Z</time>
      </trkpt>
      <trkpt lat="44.88741" lon="3.82227">
        <ele>1146.44</ele>
        <time>2023-09-06T14:07:44Z</time>
      </trkpt>
      <trkpt lat="44.88753" lon="3.82199">
        <ele>1146.44</ele>
        <time>2023-09-06T14:08:09Z</time>
      </trkpt>
      <trkpt lat="44.88762" lon="3.82175">
        <ele>1147.44</ele>
        <time>2023-09-06T14:08:25Z</time>
      </trkpt>
      <trkpt lat="44.88768" lon="3.82151">
        <ele>1148.44</ele>
        <time>2023-09-06T14:08:41Z</time>
      </trkpt>
      <trkpt lat="44.88775" lon="3.82126">
        <ele>1150.44</ele>
        <time>2023-09-06T14:08:57Z</time>
      </trkpt>
      <trkpt lat="44.88782" lon="3.821">
        <ele>1149.44</ele>
        <time>2023-09-06T14:09:13Z</time>
      </trkpt>
      <trkpt lat="44.88791" lon="3.82077">
        <ele>1150.44</ele>
        <time>2023-09-06T14:09:29Z</time>
      </trkpt>
      <trkpt lat="44.88799" lon="3.82053">
        <ele>1152.44</ele>
        <time>2023-09-06T14:09:45Z</time>
      </trkpt>
      <trkpt lat="44.88806" lon="3.82028">
        <ele>1150.44</ele>
        <time>2023-09-06T14:10:21Z</time>
      </trkpt>
      <trkpt lat="44.88814" lon="3.82003">
        <ele>1151.44</ele>
        <time>2023-09-06T14:10:45Z</time>
      </trkpt>
      <trkpt lat="44.88816" lon="3.81977">
        <ele>1153.44</ele>
        <time>2023-09-06T14:11:01Z</time>
      </trkpt>
      <trkpt lat="44.88808" lon="3.81951">
        <ele>1153.44</ele>
        <time>2023-09-06T14:11:17Z</time>
      </trkpt>
      <trkpt lat="44.888" lon="3.81922">
        <ele>1162.44</ele>
        <time>2023-09-06T14:11:33Z</time>
      </trkpt>
      <trkpt lat="44.88795" lon="3.81895">
        <ele>1163.44</ele>
        <time>2023-09-06T14:11:49Z</time>
      </trkpt>
      <trkpt lat="44.88798" lon="3.81865">
        <ele>1160.44</ele>
        <time>2023-09-06T14:12:06Z</time>
      </trkpt>
      <trkpt lat="44.88805" lon="3.81838">
        <ele>1159.44</ele>
        <time>2023-09-06T14:12:22Z</time>
      </trkpt>
      <trkpt lat="44.88813" lon="3.81811">
        <ele>1160.44</ele>
        <time>2023-09-06T14:12:38Z</time>
      </trkpt>
      <trkpt lat="44.88824" lon="3.81785">
        <ele>1159.44</ele>
        <time>2023-09-06T14:12:54Z</time>
      </trkpt>
      <trkpt lat="44.88831" lon="3.81757">
        <ele>1158.44</ele>
        <time>2023-09-06T14:13:11Z</time>
      </trkpt>
      <trkpt lat="44.88837" lon="3.8173">
        <ele>1158.44</ele>
        <time>2023-09-06T14:13:28Z</time>
      </trkpt>
      <trkpt lat="44.8884" lon="3.81701">
        <ele>1160.44</ele>
        <time>2023-09-06T14:13:44Z</time>
      </trkpt>
      <trkpt lat="44.8884" lon="3.81671">
        <ele>1159.44</ele>
        <time>2023-09-06T14:14:00Z</time>
      </trkpt>
      <trkpt lat="44.8884" lon="3.81643">
        <ele>1160.44</ele>
        <time>2023-09-06T14:14:16Z</time>
      </trkpt>
      <trkpt lat="44.88844" lon="3.81612">
        <ele>1160.44</ele>
        <time>2023-09-06T14:14:32Z</time>
      </trkpt>
      <trkpt lat="44.88845" lon="3.81584">
        <ele>1160.44</ele>
        <time>2023-09-06T14:14:48Z</time>
      </trkpt>
      <trkpt lat="44.88847" lon="3.81552">
        <ele>1160.44</ele>
        <time>2023-09-06T14:15:04Z</time>
      </trkpt>
      <trkpt lat="44.88841" lon="3.81527">
        <ele>1159.44</ele>
        <time>2023-09-06T14:15:20Z</time>
      </trkpt>
      <trkpt lat="44.88843" lon="3.81499">
        <ele>1160.44</ele>
        <time>2023-09-06T14:15:36Z</time>
      </trkpt>
      <trkpt lat="44.88843" lon="3.81471">
        <ele>1160.44</ele>
        <time>2023-09-06T14:15:52Z</time>
      </trkpt>
      <trkpt lat="44.8884" lon="3.81442">
        <ele>1160.44</ele>
        <time>2023-09-06T14:16:08Z</time>
      </trkpt>
      <trkpt lat="44.88839" lon="3.81415">
        <ele>1160.44</ele>
        <time>2023-09-06T14:16:24Z</time>
      </trkpt>
      <trkpt lat="44.8885" lon="3.81394">
        <ele>1161.44</ele>
        <time>2023-09-06T14:16:40Z</time>
      </trkpt>
      <trkpt lat="44.8886" lon="3.8137">
        <ele>1160.44</ele>
        <time>2023-09-06T14:16:56Z</time>
      </trkpt>
      <trkpt lat="44.88873" lon="3.81346">
        <ele>1162.44</ele>
        <time>2023-09-06T14:18:44Z</time>
      </trkpt>
      <trkpt lat="44.88885" lon="3.81323">
        <ele>1162.44</ele>
        <time>2023-09-06T14:19:00Z</time>
      </trkpt>
      <trkpt lat="44.88894" lon="3.813">
        <ele>1161.44</ele>
        <time>2023-09-06T14:19:16Z</time>
      </trkpt>
      <trkpt lat="44.88907" lon="3.8128">
        <ele>1163.44</ele>
        <time>2023-09-06T14:19:32Z</time>
      </trkpt>
      <trkpt lat="44.88921" lon="3.8126">
        <ele>1165.44</ele>
        <time>2023-09-06T14:19:48Z</time>
      </trkpt>
      <trkpt lat="44.88934" lon="3.8124">
        <ele>1167.44</ele>
        <time>2023-09-06T14:20:04Z</time>
      </trkpt>
      <trkpt lat="44.88943" lon="3.81218">
        <ele>1168.44</ele>
        <time>2023-09-06T14:20:20Z</time>
      </trkpt>
      <trkpt lat="44.88942" lon="3.81192">
        <ele>1167.44</ele>
        <time>2023-09-06T14:20:36Z</time>
      </trkpt>
      <trkpt lat="44.88943" lon="3.81162">
        <ele>1170.44</ele>
        <time>2023-09-06T14:20:56Z</time>
      </trkpt>
      <trkpt lat="44.88945" lon="3.81135">
        <ele>1174.44</ele>
        <time>2023-09-06T14:21:16Z</time>
      </trkpt>
      <trkpt lat="44.8895" lon="3.81106">
        <ele>1175.44</ele>
        <time>2023-09-06T14:21:36Z</time>
      </trkpt>
      <trkpt lat="44.88953" lon="3.81078">
        <ele>1179.44</ele>
        <time>2023-09-06T14:21:56Z</time>
      </trkpt>
      <trkpt lat="44.88956" lon="3.81047">
        <ele>1181.44</ele>
        <time>2023-09-06T14:22:17Z</time>
      </trkpt>
      <trkpt lat="44.88959" lon="3.81017">
        <ele>1182.44</ele>
        <time>2023-09-06T14:22:37Z</time>
      </trkpt>
      <trkpt lat="44.88962" lon="3.8099">
        <ele>1185.44</ele>
        <time>2023-09-06T14:22:57Z</time>
      </trkpt>
      <trkpt lat="44.88967" lon="3.80963">
        <ele>1189.44</ele>
        <time>2023-09-06T14:23:45Z</time>
      </trkpt>
      <trkpt lat="44.88975" lon="3.80938">
        <ele>1193.44</ele>
        <time>2023-09-06T14:24:09Z</time>
      </trkpt>
      <trkpt lat="44.88982" lon="3.80912">
        <ele>1193.44</ele>
        <time>2023-09-06T14:24:33Z</time>
      </trkpt>
      <trkpt lat="44.88982" lon="3.80885">
        <ele>1194.44</ele>
        <time>2023-09-06T14:24:53Z</time>
      </trkpt>
      <trkpt lat="44.88979" lon="3.80859">
        <ele>1196.44</ele>
        <time>2023-09-06T14:25:13Z</time>
      </trkpt>
      <trkpt lat="44.88976" lon="3.8083">
        <ele>1199.44</ele>
        <time>2023-09-06T14:25:33Z</time>
      </trkpt>
      <trkpt lat="44.88975" lon="3.80803">
        <ele>1202.44</ele>
        <time>2023-09-06T14:25:53Z</time>
      </trkpt>
      <trkpt lat="44.88977" lon="3.80775">
        <ele>1205.44</ele>
        <time>2023-09-06T14:26:13Z</time>
      </trkpt>
      <trkpt lat="44.88977" lon="3.80746">
        <ele>1208.44</ele>
        <time>2023-09-06T14:26:34Z</time>
      </trkpt>
      <trkpt lat="44.88973" lon="3.8072">
        <ele>1209.44</ele>
        <time>2023-09-06T14:27:02Z</time>
      </trkpt>
      <trkpt lat="44.88965" lon="3.80692">
        <ele>1209.44</ele>
        <time>2023-09-06T14:27:22Z</time>
      </trkpt>
      <trkpt lat="44.88955" lon="3.80669">
        <ele>1209.44</ele>
        <time>2023-09-06T14:27:38Z</time>
      </trkpt>
      <trkpt lat="44.88946" lon="3.80643">
        <ele>1209.44</ele>
        <time>2023-09-06T14:27:54Z</time>
      </trkpt>
      <trkpt lat="44.88941" lon="3.80617">
        <ele>1209.44</ele>
        <time>2023-09-06T14:28:10Z</time>
      </trkpt>
      <trkpt lat="44.88937" lon="3.80591">
        <ele>1209.44</ele>
        <time>2023-09-06T14:28:26Z</time>
      </trkpt>
      <trkpt lat="44.88932" lon="3.80563">
        <ele>1207.44</ele>
        <time>2023-09-06T14:28:42Z</time>
      </trkpt>
      <trkpt lat="44.88932" lon="3.80535">
        <ele>1209.44</ele>
        <time>2023-09-06T14:28:58Z</time>
      </trkpt>
      <trkpt lat="44.88933" lon="3.80506">
        <ele>1209.44</ele>
        <time>2023-09-06T14:29:14Z</time>
      </trkpt>
      <trkpt lat="44.8893" lon="3.80479">
        <ele>1210.44</ele>
        <time>2023-09-06T14:29:30Z</time>
      </trkpt>
      <trkpt lat="44.88933" lon="3.80446">
        <ele>1207.44</ele>
        <time>2023-09-06T14:29:55Z</time>
      </trkpt>
      <trkpt lat="44.88943" lon="3.80423">
        <ele>1209.44</ele>
        <time>2023-09-06T14:30:11Z</time>
      </trkpt>
      <trkpt lat="44.88951" lon="3.80394">
        <ele>1208.44</ele>
        <time>2023-09-06T14:30:28Z</time>
      </trkpt>
      <trkpt lat="44.88958" lon="3.80369">
        <ele>1207.44</ele>
        <time>2023-09-06T14:30:44Z</time>
      </trkpt>
      <trkpt lat="44.88967" lon="3.80342">
        <ele>1207.44</ele>
        <time>2023-09-06T14:31:00Z</time>
      </trkpt>
      <trkpt lat="44.88975" lon="3.80316">
        <ele>1208.44</ele>
        <time>2023-09-06T14:31:16Z</time>
      </trkpt>
      <trkpt lat="44.88983" lon="3.80292">
        <ele>1208.44</ele>
        <time>2023-09-06T14:31:32Z</time>
      </trkpt>
      <trkpt lat="44.88989" lon="3.80265">
        <ele>1209.44</ele>
        <time>2023-09-06T14:31:48Z</time>
      </trkpt>
      <trkpt lat="44.88995" lon="3.80237">
        <ele>1210.44</ele>
        <time>2023-09-06T14:32:04Z</time>
      </trkpt>
      <trkpt lat="44.88998" lon="3.80209">
        <ele>1209.44</ele>
        <time>2023-09-06T14:32:20Z</time>
      </trkpt>
      <trkpt lat="44.88999" lon="3.80183">
        <ele>1209.44</ele>
        <time>2023-09-06T14:32:36Z</time>
      </trkpt>
      <trkpt lat="44.88989" lon="3.80161">
        <ele>1209.44</ele>
        <time>2023-09-06T14:32:52Z</time>
      </trkpt>
      <trkpt lat="44.88971" lon="3.8015">
        <ele>1209.44</ele>
        <time>2023-09-06T14:33:08Z</time>
      </trkpt>
      <trkpt lat="44.88953" lon="3.80137">
        <ele>1210.44</ele>
        <time>2023-09-06T14:33:48Z</time>
      </trkpt>
      <trkpt lat="44.88933" lon="3.80127">
        <ele>1209.44</ele>
        <time>2023-09-06T14:34:04Z</time>
      </trkpt>
      <trkpt lat="44.88923" lon="3.80103">
        <ele>1209.44</ele>
        <time>2023-09-06T14:34:20Z</time>
      </trkpt>
      <trkpt lat="44.88931" lon="3.80075">
        <ele>1209.44</ele>
        <time>2023-09-06T14:34:36Z</time>
      </trkpt>
      <trkpt lat="44.88935" lon="3.80043">
        <ele>1210.44</ele>
        <time>2023-09-06T14:34:52Z</time>
      </trkpt>
      <trkpt lat="44.88942" lon="3.80014">
        <ele>1211.44</ele>
        <time>2023-09-06T14:35:08Z</time>
      </trkpt>
      <trkpt lat="44.88947" lon="3.79984">
        <ele>1210.44</ele>
        <time>2023-09-06T14:35:24Z</time>
      </trkpt>
      <trkpt lat="44.88951" lon="3.79953">
        <ele>1211.44</ele>
        <time>2023-09-06T14:35:40Z</time>
      </trkpt>
      <trkpt lat="44.88955" lon="3.79923">
        <ele>1211.44</ele>
        <time>2023-09-06T14:35:56Z</time>
      </trkpt>
      <trkpt lat="44.88958" lon="3.79894">
        <ele>1212.44</ele>
        <time>2023-09-06T14:36:12Z</time>
      </trkpt>
      <trkpt lat="44.88961" lon="3.79866">
        <ele>1212.44</ele>
        <time>2023-09-06T14:36:28Z</time>
      </trkpt>
      <trkpt lat="44.88965" lon="3.79835">
        <ele>1214.44</ele>
        <time>2023-09-06T14:36:44Z</time>
      </trkpt>
      <trkpt lat="44.8897" lon="3.79805">
        <ele>1214.44</ele>
        <time>2023-09-06T14:37:00Z</time>
      </trkpt>
      <trkpt lat="44.88974" lon="3.79777">
        <ele>1217.44</ele>
        <time>2023-09-06T14:37:16Z</time>
      </trkpt>
      <trkpt lat="44.88976" lon="3.79746">
        <ele>1215.44</ele>
        <time>2023-09-06T14:37:32Z</time>
      </trkpt>
      <trkpt lat="44.8898" lon="3.79715">
        <ele>1215.44</ele>
        <time>2023-09-06T14:37:48Z</time>
      </trkpt>
      <trkpt lat="44.88984" lon="3.79688">
        <ele>1216.44</ele>
        <time>2023-09-06T14:38:04Z</time>
      </trkpt>
      <trkpt lat="44.88988" lon="3.79654">
        <ele>1217.44</ele>
        <time>2023-09-06T14:38:20Z</time>
      </trkpt>
      <trkpt lat="44.88996" lon="3.79626">
        <ele>1217.44</ele>
        <time>2023-09-06T14:38:36Z</time>
      </trkpt>
      <trkpt lat="44.89011" lon="3.79604">
        <ele>1216.44</ele>
        <time>2023-09-06T14:38:52Z</time>
      </trkpt>
      <trkpt lat="44.89031" lon="3.79588">
        <ele>1216.44</ele>
        <time>2023-09-06T14:39:12Z</time>
      </trkpt>
      <trkpt lat="44.89045" lon="3.79562">
        <ele>1216.44</ele>
        <time>2023-09-06T14:39:28Z</time>
      </trkpt>
      <trkpt lat="44.89042" lon="3.79532">
        <ele>1217.44</ele>
        <time>2023-09-06T14:39:44Z</time>
      </trkpt>
      <trkpt lat="44.89043" lon="3.79507">
        <ele>1218.44</ele>
        <time>2023-09-06T14:40:00Z</time>
      </trkpt>
      <trkpt lat="44.89058" lon="3.79484">
        <ele>1213.44</ele>
        <time>2023-09-06T14:40:40Z</time>
      </trkpt>
      <trkpt lat="44.8908" lon="3.79487">
        <ele>1214.44</ele>
        <time>2023-09-06T14:41:00Z</time>
      </trkpt>
      <trkpt lat="44.89093" lon="3.79507">
        <ele>1215.44</ele>
        <time>2023-09-06T14:41:16Z</time>
      </trkpt>
      <trkpt lat="44.89107" lon="3.79527">
        <ele>1216.44</ele>
        <time>2023-09-06T14:41:33Z</time>
      </trkpt>
      <trkpt lat="44.89125" lon="3.79532">
        <ele>1216.44</ele>
        <time>2023-09-06T14:41:49Z</time>
      </trkpt>
    </trkseg>
  </trk>
</gpx>